Flight Track Log - Related Links

Times and Time Zones

All times are in EDT time to prevent confusion due to time zone crossing. See the DAL268 flight status page for this flight to view local times or setup timezone preferences in your user account.

Time Position Orientation Groundspeed Altitude Reporting Facility
EDT Latitude Longitude Course Direction KTS MPH feet Rate Location/Type
Mon 12:04:35 AM 40.6310 -73.7770 270° West 74 85  Level FlightAware ADS-B
Mon 12:04:56 AM 40.6370 -73.7900 301° West 145 167 419 Level FlightAware ADS-B
Mon 12:05:18 AM 40.6460 -73.8110 299° West 185 213 300 1,333 Climbing FlightAware ADS-B
Mon 12:05:32 AM 40.6510 -73.8250 295° West 180 207 800 1,800 Climbing FlightAware ADS-B
Mon 12:05:38 AM 40.6520 -73.8310 282° West 183 211 900 1,286 Climbing FlightAware ADS-B
Mon 12:06:00 AM 40.6470 -73.8540 254° West 207 238 1,400 1,200 Climbing FlightAware ADS-B
Mon 12:06:08 AM 40.6410 -73.8620 225° Southwest 222 255 1,500 600 Climbing FlightAware ADS-B
Mon 12:06:30 AM 40.6160 -73.8750 202° Southwest 264 304 1,700 1,038 Climbing FlightAware ADS-B
Mon 12:07:00 AM 40.5790 -73.8650 168° South 286 329 2,400 1,429 Climbing FlightAware ADS-B
Mon 12:07:12 AM 40.5660 -73.8520 143° Southeast 293 337 2,700 1,250 Climbing FlightAware ADS-B
Mon 12:07:24 AM 40.5550 -73.8360 132° Southeast 299 344 2,900 1,680 Climbing FlightAware ADS-B
Mon 12:07:37 AM 40.5450 -73.8160 123° Southeast 299 344 3,400 2,571 Climbing FlightAware ADS-B
Mon 12:07:52 AM 40.5390 -73.7890 106° East 294 338 4,100 2,571 Climbing FlightAware ADS-B
Mon 12:07:58 AM 40.5390 -73.7780 90° East 292 336 4,300 2,200 Climbing FlightAware ADS-B
Mon 12:08:22 AM 40.5460 -73.7370 77° East 286 329 5,200 1,909 Climbing FlightAware ADS-B
Mon 12:08:42 AM 40.5595 -73.7067 60° Northeast 293 337 5,700 1,680 Climbing FlightAware ADS-B
Mon 12:08:47 AM 40.5639 -73.6997 50° Northeast 296 341 5,900 1,765 Climbing FlightAware ADS-B
Mon 12:08:59 AM 40.5755 -73.6840 46° Northeast 301 346 6,200 1,920 Climbing FlightAware ADS-B
Mon 12:09:12 AM 40.5889 -73.6688 41° Northeast 299 344 6,700 2,182 Climbing FlightAware ADS-B
Mon 12:09:21 AM 40.5992 -73.6593 35° Northeast 298 343 7,000 1,680 Climbing FlightAware ADS-B
Mon 12:09:37 AM 40.6184 -73.6441 31° Northeast 308 354 7,400 1,448 Climbing FlightAware ADS-B
Mon 12:09:50 AM 40.6353 -73.6327 27° Northeast 314 361 7,700 2,000 Climbing FlightAware ADS-B
Mon 12:10:07 AM 40.6576 -73.6192 25° Northeast 315 362 8,400 2,400 Climbing FlightAware ADS-B
Mon 12:10:30 AM 40.6895 -73.6016 23° Northeast 317 365 9,300 2,204 Climbing FlightAware ADS-B
Mon 12:10:56 AM 40.7236 -73.5808 25° Northeast 321 369 10,200 1,714 Climbing FlightAware ADS-B
Mon 12:11:47 AM 40.7939 -73.5331 27° Northeast 332 382 11,500 1,404 Climbing FlightAware ADS-B
Mon 12:12:30 AM 40.8470 -73.4660 44° Northeast 385 443 12,400 1,139 Climbing FlightAware ADS-B
Mon 12:13:06 AM 40.8880 -73.3990 51° Northeast 412 474 13,000 1,500 Climbing FlightAware ADS-B
Mon 12:13:42 AM 40.9310 -73.3290 51° Northeast 424 488 14,200 1,465 Climbing FlightAware ADS-B
Mon 12:14:32 AM 40.9890 -73.2330 51° Northeast 431 496 15,100 1,455 Climbing FlightAware ADS-B
Mon 12:15:21 AM 41.0460 -73.1380 51° Northeast 440 506 16,600 1,047 Climbing FlightAware ADS-B
Mon 12:15:58 AM 41.0860 -73.0720 51° Northeast 440 506 16,600  Level FlightAware ADS-B
Mon 12:16:34 AM 41.1250 -73.0080 51° Northeast 440 506 16,600  Level FlightAware ADS-B
Mon 12:17:10 AM 41.1650 -72.9440 50° Northeast 440 506 16,600  Level FlightAware ADS-B
Mon 12:17:47 AM 41.2050 -72.8780 51° Northeast 440 506 16,600  Level FlightAware ADS-B
Mon 12:18:23 AM 41.2440 -72.8130 51° Northeast 440 506 16,600 3,391 Level FlightAware ADS-B
Mon 12:20:28 AM 41.4660 -72.4040 54° Northeast 502 578 25,700 3,652 Climbing FlightAware ADS-B
Mon 12:21:04 AM 41.5130 -72.3190 54° Northeast 509 586 26,400 1,077 Climbing FlightAware ADS-B
Mon 12:21:46 AM 41.5730 -72.2100 54° Northeast 516 594 27,100 1,247 Climbing FlightAware ADS-B
Mon 12:22:21 AM 41.6200 -72.1250 53° Northeast 514 592 28,000 1,263 Climbing FlightAware ADS-B
Mon 12:23:02 AM 41.6570 -72.0590 53° Northeast 514 592 28,700 833 Climbing FlightAware ADS-B
Mon 12:23:33 AM 41.7250 -71.9360 53° Northeast 515 593 29,000 254 Climbing FlightAware ADS-B
Mon 12:24:13 AM 41.7820 -71.8310 54° Northeast 514 592 29,000  Level FlightAware ADS-B
Mon 12:24:48 AM 41.8300 -71.7440 53° Northeast 510 587 29,000  Level FlightAware ADS-B
Mon 12:25:23 AM 41.8770 -71.6570 54° Northeast 509 586 29,000  Level FlightAware ADS-B
Mon 12:25:59 AM 41.9290 -71.5630 53° Northeast 507 583 29,000  Level FlightAware ADS-B
Mon 12:26:33 AM 41.9770 -71.4760 53° Northeast 502 578 29,000  Level FlightAware ADS-B
Mon 12:27:08 AM 42.0250 -71.3870 54° Northeast 504 580 29,000  Level FlightAware ADS-B
Mon 12:27:43 AM 42.0730 -71.2970 54° Northeast 506 582 29,000  Level FlightAware ADS-B
Mon 12:28:18 AM 42.1220 -71.2070 54° Northeast 507 583 29,000  Level FlightAware ADS-B
Mon 12:28:53 AM 42.1720 -71.1140 54° Northeast 508 585 29,000  Level FlightAware ADS-B
Mon 12:29:28 AM 42.2160 -71.0310 54° Northeast 509 586 29,000  Level FlightAware ADS-B
Mon 12:30:03 AM 42.2680 -70.9350 54° Northeast 509 586 29,000  Level FlightAware ADS-B
Mon 12:30:37 AM 42.3160 -70.8430 55° Northeast 514 592 29,000  Level FlightAware ADS-B
Mon 12:31:23 AM 42.3760 -70.7280 55° Northeast 516 594 29,000  Level FlightAware ADS-B
Mon 12:31:53 AM 42.4230 -70.6410 54° Northeast 520 598 29,000  Level FlightAware ADS-B
Mon 12:32:33 AM 42.4780 -70.5360 55° Northeast 517 595 29,000  Level FlightAware ADS-B
Mon 12:33:03 AM 42.5180 -70.4590 55° Northeast 517 595 29,000  Level FlightAware ADS-B
Mon 12:33:41 AM 42.5710 -70.3580 55° Northeast 518 596 29,000  Level FlightAware ADS-B
Mon 12:34:13 AM 42.6100 -70.2840 54° Northeast 511 588 29,000  Level FlightAware ADS-B
Mon 12:34:50 AM 42.6660 -70.1760 55° Northeast 513 590 29,000  Level FlightAware ADS-B
Mon 12:35:27 AM 42.7170 -70.0780 55° Northeast 514 592 29,000  Level FlightAware ADS-B
Mon 12:36:13 AM 42.7780 -69.9600 55° Northeast 509 586 29,000  Level FlightAware ADS-B
Mon 12:36:48 AM 42.8270 -69.8640 55° Northeast 511 588 29,000  Level FlightAware ADS-B
Mon 12:37:28 AM 42.8790 -69.7650 54° Northeast 514 592 29,000  Level FlightAware ADS-B
Mon 12:38:03 AM 42.9300 -69.6630 56° Northeast 517 595 29,000  Level FlightAware ADS-B
Mon 12:38:43 AM 42.9840 -69.5570 55° Northeast 518 596 29,000  Level FlightAware ADS-B
Mon 12:39:08 AM 43.0180 -69.4890 56° Northeast 518 596 29,000  Level FlightAware ADS-B
Mon 12:39:44 AM 43.0620 -69.4050 54° Northeast 520 598 29,000  Level FlightAware ADS-B
Mon 12:40:28 AM 43.1290 -69.2730 55° Northeast 523 602 29,000  Level FlightAware ADS-B
Mon 12:41:09 AM 43.1820 -69.1660 56° Northeast 524 603 29,000  Level FlightAware ADS-B
Mon 12:41:45 AM 43.2240 -69.0810 56° Northeast 524 603 29,000  Level FlightAware ADS-B
Mon 12:42:21 AM 43.2650 -68.9970 56° Northeast 524 603 29,000  Level FlightAware ADS-B
Mon 12:42:57 AM 43.3070 -68.9120 56° Northeast 524 603 29,000  Level FlightAware ADS-B
Mon 12:43:33 AM 43.3480 -68.8280 56° Northeast 524 603 29,000  Level FlightAware ADS-B
Mon 12:44:09 AM 43.3900 -68.7430 56° Northeast 524 603 29,000  Level FlightAware ADS-B
Mon 12:49:24 AM 43.8720 -67.7590 56° Northeast 535 616 29,000  Level FlightAware ADS-B
Mon 12:49:59 AM 43.9190 -67.6610 56° Northeast 534 615 29,000  Level FlightAware ADS-B
Mon 12:50:34 AM 43.9680 -67.5570 57° Northeast 533 613 29,000  Level FlightAware ADS-B
Mon 12:51:08 AM 44.0150 -67.4600 56° Northeast 536 617 29,000  Level FlightAware ADS-B
Mon 12:51:44 AM 44.0630 -67.3560 57° Northeast 536 617 29,000  Level FlightAware ADS-B
Mon 12:52:18 AM 44.1100 -67.2580 56° Northeast 535 616 29,000  Level FlightAware ADS-B
Mon 12:52:54 AM 44.1580 -67.1540 57° Northeast 535 616 29,000  Level FlightAware ADS-B
Mon 12:53:34 AM 44.2130 -67.0380 56° Northeast 535 616 29,000  Level FlightAware ADS-B
Mon 12:54:10 AM 44.2610 -66.9350 57° Northeast 532 612 29,000  Level FlightAware ADS-B
Mon 12:54:44 AM 44.3080 -66.8310 58° Northeast 531 611 29,000  Level FlightAware ADS-B
Mon 12:55:20 AM 44.3540 -66.7330 57° Northeast 530 610 29,000  Level FlightAware ADS-B
Mon 12:55:59 AM 44.4060 -66.6210 57° Northeast 525 604 29,000  Level FlightAware ADS-B
Mon 12:56:35 AM 44.4530 -66.5170 58° Northeast 523 602 29,000  Level FlightAware ADS-B
Mon 12:57:04 AM 44.4920 -66.4340 57° Northeast 524 603 29,000  Level FlightAware ADS-B
Mon 12:57:40 AM 44.5380 -66.3300 58° Northeast 526 605 29,000  Level FlightAware ADS-B
Mon 12:58:19 AM 44.5900 -66.2170 57° Northeast 526 605 29,000  Level FlightAware ADS-B
Mon 12:58:55 AM 44.6370 -66.1120 58° Northeast 526 605 29,000  Level FlightAware ADS-B
Mon 12:59:24 AM 44.6770 -66.0250 57° Northeast 525 604 29,000  Level FlightAware ADS-B
Mon 12:59:59 AM 44.7220 -65.9230 58° Northeast 526 605 29,000  Level FlightAware ADS-B
Mon 01:00:34 AM 44.7640 -65.8290 58° Northeast 529 609 29,000  Level FlightAware ADS-B
Mon 01:01:09 AM 44.8130 -65.7200 58° Northeast 533 613 29,000  Level FlightAware ADS-B
Mon 01:01:44 AM 44.8600 -65.6160 57° Northeast 535 616 29,000  Level FlightAware ADS-B
Mon 01:02:24 AM 44.9130 -65.4940 58° Northeast 535 616 29,000  Level FlightAware ADS-B
Mon 01:02:59 AM 44.9590 -65.3920 57° Northeast 537 618 29,000  Level FlightAware ADS-B
Mon 01:03:29 AM 44.9990 -65.2990 59° Northeast 544 626 29,000  Level FlightAware ADS-B
Mon 01:04:09 AM 45.0510 -65.1810 58° Northeast 547 629 29,000  Level FlightAware ADS-B
Mon 01:04:47 AM 45.0950 -65.0800 58° Northeast 548 631 29,000  Level FlightAware ADS-B
Mon 01:05:22 AM 45.1470 -64.9610 58° Northeast 550 633 29,000  Level FlightAware ADS-B
Mon 01:06:15 AM 45.2130 -64.8100 58° Northeast 552 635 29,000  Level FlightAware ADS-B
Mon 01:06:55 AM 45.2570 -64.7040 59° Northeast 552 635 29,000  Level FlightAware ADS-B
Mon 01:07:31 AM 45.2980 -64.6090 58° Northeast 552 635 29,000  Level FlightAware ADS-B
Mon 01:08:07 AM 45.3380 -64.5140 59° Northeast 552 635 29,000  Level FlightAware ADS-B
Mon 01:08:43 AM 45.3780 -64.4180 59° Northeast 552 635 29,000  Level FlightAware ADS-B
Mon 01:09:20 AM 45.4200 -64.3200 59° Northeast 552 635 29,000  Level FlightAware ADS-B
Mon 01:09:56 AM 45.4600 -64.2250 59° Northeast 552 635 29,000  Level FlightAware ADS-B
Mon 01:10:52 AM 45.5667 -63.9333 59° Northeast 550 633 29,000  Level Gander Center
Mon 01:11:52 AM 45.6500 -63.7167 61° Northeast 560 644 29,000  Level Gander Center
Mon 01:17:52 AM 46.1370 -62.5820 61° Northeast 559 643 29,000  Level FlightAware ADS-B
Mon 01:18:28 AM 46.1820 -62.4690 60° Northeast 559 643 29,000  Level FlightAware ADS-B
Mon 01:19:04 AM 46.2290 -62.3490 60° Northeast 560 644 29,000  Level FlightAware ADS-B
Mon 01:19:40 AM 46.2760 -62.2320 60° Northeast 562 647 29,000  Level FlightAware ADS-B
Mon 01:20:12 AM 46.3170 -62.1240 61° Northeast 562 647 29,000  Level FlightAware ADS-B
Mon 01:20:48 AM 46.3640 -62.0060 60° Northeast 563 648 29,000  Level FlightAware ADS-B
Mon 01:21:25 AM 46.4100 -61.8880 60° Northeast 564 649 29,000  Level FlightAware ADS-B
Mon 01:21:56 AM 46.4490 -61.7860 61° Northeast 567 652 29,000  Level FlightAware ADS-B
Mon 01:22:32 AM 46.4960 -61.6630 61° Northeast 568 654 29,000  Level FlightAware ADS-B
Mon 01:23:08 AM 46.5420 -61.5430 61° Northeast 567 652 29,000  Level FlightAware ADS-B
Mon 01:23:44 AM 46.5890 -61.4230 60° Northeast 569 655 29,000  Level FlightAware ADS-B
Mon 01:24:20 AM 46.6340 -61.3060 61° Northeast 571 657 29,000  Level FlightAware ADS-B
Mon 01:24:53 AM 46.6750 -61.1950 62° Northeast 571 657 29,000  Level FlightAware ADS-B
Mon 01:25:28 AM 46.7200 -61.0770 61° Northeast 573 659 29,000  Level FlightAware ADS-B
Mon 01:26:04 AM 46.7660 -60.9550 61° Northeast 573 659 29,000  Level FlightAware ADS-B
Mon 01:26:38 AM 46.8100 -60.8360 62° Northeast 575 662 29,000  Level FlightAware ADS-B
Mon 01:27:08 AM 46.8480 -60.7370 61° Northeast 576 663 29,000  Level FlightAware ADS-B
Mon 01:27:46 AM 46.8960 -60.6070 62° Northeast 575 662 29,000  Level FlightAware ADS-B
Mon 01:28:23 AM 46.9410 -60.4840 62° Northeast 576 663 29,000  Level FlightAware ADS-B
Mon 01:28:56 AM 46.9840 -60.3670 62° Northeast 578 665 29,000  Level FlightAware ADS-B
Mon 01:29:32 AM 47.0300 -60.2420 62° Northeast 580 667 29,000  Level FlightAware ADS-B
Mon 01:30:08 AM 47.0750 -60.1170 62° Northeast 582 670 29,000  Level FlightAware ADS-B
Mon 01:30:44 AM 47.1210 -59.9890 62° Northeast 580 667 29,000  Level FlightAware ADS-B
Mon 01:31:25 AM 47.1700 -59.8560 62° Northeast 580 667 29,000  Level FlightAware ADS-B
Mon 01:32:00 AM 47.2160 -59.7280 62° Northeast 580 667 29,000  Level FlightAware ADS-B
Mon 01:32:36 AM 47.2610 -59.6020 62° Northeast 583 671 29,000  Level FlightAware ADS-B
Mon 01:33:26 AM 47.3190 -59.4400 62° Northeast 584 672 29,000  Level FlightAware ADS-B
Mon 01:34:02 AM 47.3580 -59.3330 62° Northeast 584 672 29,000  Level FlightAware ADS-B
Mon 01:34:38 AM 47.3970 -59.2250 62° Northeast 584 672 29,000  Level FlightAware ADS-B
Mon 01:35:09 AM 47.4510 -59.0650 63° Northeast 585 673 29,000  Level FlightAware ADS-B
Mon 01:35:44 AM 47.4910 -58.9470 63° Northeast 585 673 29,000  Level FlightAware ADS-B
Mon 01:36:19 AM 47.5380 -58.8120 63° Northeast 586 674 29,000  Level FlightAware ADS-B
Mon 01:36:55 AM 47.5810 -58.6910 62° Northeast 588 677 29,000  Level FlightAware ADS-B
Mon 01:37:29 AM 47.6230 -58.5650 64° Northeast 589 678 29,000  Level FlightAware ADS-B
Mon 01:38:04 AM 47.6660 -58.4430 62° Northeast 589 678 29,000  Level FlightAware ADS-B
Mon 01:38:39 AM 47.7090 -58.3160 63° Northeast 589 678 29,000  Level FlightAware ADS-B
Mon 01:39:14 AM 47.7510 -58.1900 64° Northeast 590 679 29,000  Level FlightAware ADS-B
Mon 01:39:49 AM 47.7940 -58.0590 64° Northeast 591 680 29,000  Level FlightAware ADS-B
Mon 01:40:19 AM 47.8330 -57.9460 63° Northeast 592 681 29,000  Level FlightAware ADS-B
Mon 01:40:59 AM 47.8810 -57.8000 64° Northeast 593 682 29,000  Level FlightAware ADS-B
Mon 01:41:34 AM 47.9240 -57.6720 63° Northeast 595 685 29,000  Level FlightAware ADS-B
Mon 01:42:09 AM 47.9660 -57.5470 63° Northeast 596 686 29,000  Level FlightAware ADS-B
Mon 01:42:44 AM 48.0090 -57.4140 64° Northeast 595 685 29,000  Level FlightAware ADS-B
Mon 01:43:19 AM 48.0490 -57.2920 64° Northeast 595 685 29,000  Level FlightAware ADS-B
Mon 01:43:54 AM 48.0930 -57.1550 64° Northeast 597 687 29,000  Level FlightAware ADS-B
Mon 01:44:29 AM 48.1350 -57.0250 64° Northeast 598 688 29,000  Level FlightAware ADS-B
Mon 01:45:04 AM 48.1770 -56.8950 64° Northeast 598 688 29,000  Level FlightAware ADS-B
Mon 01:45:39 AM 48.2170 -56.7660 65° Northeast 598 688 29,000  Level FlightAware ADS-B
Mon 01:46:14 AM 48.2560 -56.6350 66° East 596 686 29,000  Level FlightAware ADS-B
Mon 01:46:49 AM 48.2960 -56.4990 66° East 594 684 29,000  Level FlightAware ADS-B
Mon 01:47:24 AM 48.3360 -56.3670 65° Northeast 593 682 29,000  Level FlightAware ADS-B
Mon 01:47:59 AM 48.3750 -56.2360 66° East 593 682 29,000  Level FlightAware ADS-B
Mon 01:48:34 AM 48.4130 -56.1040 67° East 593 682 29,000  Level FlightAware ADS-B
Mon 01:49:09 AM 48.4520 -55.9760 65° Northeast 590 679 29,000  Level FlightAware ADS-B
Mon 01:49:44 AM 48.4910 -55.8410 66° East 589 678 29,000  Level FlightAware ADS-B
Mon 01:50:19 AM 48.5280 -55.7130 66° East 590 679 29,000 86 Level FlightAware ADS-B
Mon 01:50:54 AM 48.5670 -55.5810 66° East 596 686 29,100 686 Climbing FlightAware ADS-B
Mon 01:51:29 AM 48.6060 -55.4470 66° East 601 692 29,800 1,200 Climbing FlightAware ADS-B
Mon 01:52:04 AM 48.6450 -55.3080 67° East 604 695 30,500 1,114 Climbing FlightAware ADS-B
Mon 01:52:39 AM 48.6840 -55.1720 66° East 607 699 31,100 1,114 Climbing FlightAware ADS-B
Mon 01:53:14 AM 48.7230 -55.0350 67° East 610 702 31,800 1,114 Climbing FlightAware ADS-B
Mon 01:53:49 AM 48.7610 -54.8980 67° East 611 703 32,400 1,029 Climbing FlightAware ADS-B
Mon 01:54:24 AM 48.8000 -54.7600 67° East 612 704 33,000 514 Climbing FlightAware ADS-B
Mon 01:54:59 AM 48.8390 -54.6210 67° East 613 705 33,000  Level FlightAware ADS-B
Mon 01:55:29 AM 48.8720 -54.5020 67° East 612 704 33,000  Level FlightAware ADS-B
Mon 01:56:10 AM 48.9150 -54.3480 67° East 611 703 33,000  Level FlightAware ADS-B
Mon 01:56:44 AM 48.9510 -54.2170 67° East 610 702 33,000  Level FlightAware ADS-B
Mon 01:57:19 AM 48.9910 -54.0670 68° East 608 700 33,000  Level FlightAware ADS-B
Mon 01:57:54 AM 49.0270 -53.9330 68° East 609 701 33,000  Level FlightAware ADS-B
Mon 01:58:33 AM 49.0710 -53.7700 68° East 610 702 33,000  Level FlightAware ADS-B
Mon 01:59:04 AM 49.1030 -53.6510 68° East 609 701 33,000  Level FlightAware ADS-B
Mon 01:59:40 AM 49.1390 -53.5150 68° East 611 703 33,000  Level FlightAware ADS-B
Mon 02:00:14 AM 49.1760 -53.3750 68° East 610 702 33,000  Level FlightAware ADS-B
Mon 02:00:49 AM 49.2130 -53.2350 68° East 611 703 33,000  Level FlightAware ADS-B
Mon 02:01:24 AM 49.2480 -53.0990 68° East 611 703 33,000  Level FlightAware ADS-B
Mon 02:01:59 AM 49.2860 -52.9500 69° East 610 702 33,000  Level FlightAware ADS-B
Mon 02:02:34 AM 49.3200 -52.8220 68° East 610 702 33,000  Level FlightAware ADS-B
Mon 02:03:09 AM 49.3570 -52.6740 69° East 608 700 33,000  Level FlightAware ADS-B
Mon 02:03:44 AM 49.3910 -52.5450 68° East 608 700 33,000  Level FlightAware ADS-B
Mon 02:04:19 AM 49.4270 -52.4000 69° East 609 701 33,000  Level FlightAware ADS-B
Mon 02:05:04 AM 49.4740 -52.2110 69° East 605 696 33,000  Level FlightAware ADS-B
Mon 02:05:34 AM 49.5040 -52.0950 68° East 604 695 33,000  Level FlightAware ADS-B
Mon 02:06:09 AM 49.5400 -51.9490 69° East 605 696 33,000  Level FlightAware ADS-B
Mon 02:06:49 AM 49.5800 -51.7840 69° East 607 699 33,000  Level FlightAware ADS-B
Mon 02:07:30 AM 49.6130 -51.6500 69° East 607 699 33,000  Level FlightAware ADS-B
Mon 02:08:14 AM 49.6580 -51.4670 69° East 606 697 33,000  Level FlightAware ADS-B
Mon 02:08:38 AM 49.6780 -51.3850 69° East 606 697 33,000  Level FlightAware ADS-B
Mon 02:09:14 AM 49.7090 -51.2610 69° East 606 697 33,000  Level FlightAware ADS-B
Mon 02:09:50 AM 49.7390 -51.1370 69° East 606 697 33,000  Level FlightAware ADS-B
Mon 02:10:26 AM 49.7700 -51.0130 69° East 606 697 33,000  Level FlightAware ADS-B
Mon 02:11:03 AM 49.8020 -50.8860 69° East 606 697 33,000  Level FlightAware ADS-B
Mon 02:11:39 AM 49.8320 -50.7620 69° East 606 697 33,000  Level FlightAware ADS-B
Mon 02:12:15 AM 49.8630 -50.6370 69° East 606 697 33,000  Level FlightAware ADS-B
Mon 02:12:51 AM 49.8940 -50.5130 69° East 606 697 33,000  Level FlightAware ADS-B
Mon 02:13:28 AM 49.9250 -50.3850 69° East 606 697 33,000  Level FlightAware ADS-B
Mon 02:14:04 AM 49.9560 -50.2610 69° East 606 697 33,000  Level FlightAware ADS-B
Mon 02:14:41 AM 49.9880 -50.1330 69° East 606 697 33,000  Level FlightAware ADS-B
Mon 02:15:17 AM 50.0190 -50.0080 69° East 606 697 33,000  Level FlightAware ADS-B
Mon 02:15:53 AM 50.0490 -49.8830 69° East 606 697 33,000  Level FlightAware ADS-B
Mon 02:16:30 AM 50.0810 -49.7550 69° East 606 697 33,000  Level FlightAware ADS-B
Mon 02:17:07 AM 50.1120 -49.6270 69° East 606 697 33,000  Level FlightAware ADS-B
Mon 02:17:43 AM 50.1430 -49.5020 69° East 606 697 33,000  Level FlightAware ADS-B
Mon 02:18:19 AM 50.1333 -48.8833 69° East 600 690 33,000  Level Gander Center
Mon 02:18:52 AM 50.1500 -48.7167 81° East 600 690 33,000  Level Gander Center
Mon 02:20:52 AM 50.2167 -48.2000 78° East 600 690 33,000  Level Gander Center
Mon 02:23:00 AM 50.2513 -47.9492 78° East  Level FlightAware Approximate
Mon 02:30:00 AM 50.4533 -46.3926 78° East  Level FlightAware Approximate
Mon 02:31:00 AM 50.4792 -46.1688 80° East  Level FlightAware Approximate
Mon 02:32:00 AM 50.5035 -45.9445 80° East  Level FlightAware Approximate
Mon 02:33:00 AM 50.5273 -45.7198 80° East  Level FlightAware Approximate
Mon 02:34:00 AM 50.5507 -45.4950 81° East  Level FlightAware Approximate
Mon 02:35:00 AM 50.5737 -45.2700 81° East  Level FlightAware Approximate
Mon 02:36:00 AM 50.5962 -45.0447 81° East  Level FlightAware Approximate
Mon 02:37:00 AM 50.6183 -44.8192 81° East  Level FlightAware Approximate
Mon 02:38:00 AM 50.6399 -44.5936 81° East  Level FlightAware Approximate
Mon 02:39:00 AM 50.6612 -44.3677 81° East  Level FlightAware Approximate
Mon 02:40:00 AM 50.6819 -44.1416 82° East  Level FlightAware Approximate
Mon 02:41:00 AM 50.7023 -43.9153 82° East  Level FlightAware Approximate
Mon 02:42:00 AM 50.7222 -43.6888 82° East  Level FlightAware Approximate
Mon 02:43:00 AM 50.7417 -43.4621 82° East  Level FlightAware Approximate
Mon 02:44:00 AM 50.7607 -43.2352 82° East  Level FlightAware Approximate
Mon 02:45:00 AM 50.7793 -43.0082 83° East  Level FlightAware Approximate
Mon 02:46:00 AM 50.7974 -42.7810 83° East  Level FlightAware Approximate
Mon 02:47:00 AM 50.8151 -42.5536 83° East  Level FlightAware Approximate
Mon 02:48:00 AM 50.8338 -42.3263 82° East  Level FlightAware Approximate
Mon 02:49:00 AM 50.8521 -42.0988 83° East  Level FlightAware Approximate
Mon 02:50:00 AM 50.8700 -41.8712 83° East  Level FlightAware Approximate
Mon 02:51:00 AM 50.8875 -41.6434 83° East  Level FlightAware Approximate
Mon 02:52:00 AM 50.9045 -41.4154 83° East  Level FlightAware Approximate
Mon 02:53:00 AM 50.9211 -41.1873 83° East  Level FlightAware Approximate
Mon 02:54:00 AM 50.9372 -40.9584 84° East  Level FlightAware Approximate
Mon 02:55:00 AM 50.9530 -40.7293 84° East  Level FlightAware Approximate
Mon 02:56:00 AM 50.9683 -40.5001 84° East  Level FlightAware Approximate
Mon 02:57:00 AM 50.9831 -40.2707 84° East  Level FlightAware Approximate
Mon 02:58:00 AM 50.9975 -40.0412 84° East  Level FlightAware Approximate
Mon 02:59:00 AM 51.0267 -39.8155 77° East  Level FlightAware Approximate
Mon 03:00:00 AM 51.0588 -39.5903 77° East  Level FlightAware Approximate
Mon 03:01:00 AM 51.0905 -39.3648 77° East  Level FlightAware Approximate
Mon 03:02:00 AM 51.1218 -39.1390 77° East  Level FlightAware Approximate
Mon 03:03:00 AM 51.1526 -38.9129 78° East  Level FlightAware Approximate
Mon 03:04:00 AM 51.1830 -38.6865 78° East  Level FlightAware Approximate
Mon 03:05:00 AM 51.2130 -38.4598 78° East  Level FlightAware Approximate
Mon 03:06:00 AM 51.2425 -38.2328 78° East  Level FlightAware Approximate
Mon 03:07:00 AM 51.2716 -38.0055 78° East  Level FlightAware Approximate
Mon 03:08:00 AM 51.3002 -37.7780 79° East  Level FlightAware Approximate
Mon 03:09:00 AM 51.3284 -37.5501 79° East  Level FlightAware Approximate
Mon 03:10:00 AM 51.3562 -37.3220 79° East  Level FlightAware Approximate
Mon 03:11:00 AM 51.3835 -37.0936 79° East  Level FlightAware Approximate
Mon 03:12:00 AM 51.4104 -36.8649 79° East  Level FlightAware Approximate
Mon 03:13:00 AM 51.4368 -36.6360 79° East  Level FlightAware Approximate
Mon 03:14:00 AM 51.4628 -36.4068 80° East  Level FlightAware Approximate
Mon 03:15:00 AM 51.4883 -36.1773 80° East  Level FlightAware Approximate
Mon 03:16:00 AM 51.5134 -35.9476 80° East  Level FlightAware Approximate
Mon 03:17:00 AM 51.5380 -35.7176 80° East  Level FlightAware Approximate
Mon 03:18:00 AM 51.5622 -35.4874 80° East  Level FlightAware Approximate
Mon 03:19:00 AM 51.5859 -35.2570 81° East  Level FlightAware Approximate
Mon 03:20:00 AM 51.6092 -35.0263 81° East  Level FlightAware Approximate
Mon 03:21:00 AM 51.6320 -34.7953 81° East  Level FlightAware Approximate
Mon 03:22:00 AM 51.6544 -34.5642 81° East  Level FlightAware Approximate
Mon 03:23:00 AM 51.6763 -34.3328 81° East  Level FlightAware Approximate
Mon 03:24:00 AM 51.6978 -34.1012 81° East  Level FlightAware Approximate
Mon 03:25:00 AM 51.7188 -33.8694 82° East  Level FlightAware Approximate
Mon 03:26:00 AM 51.7394 -33.6373 82° East  Level FlightAware Approximate
Mon 03:27:00 AM 51.7595 -33.4051 82° East  Level FlightAware Approximate
Mon 03:28:00 AM 51.7791 -33.1726 82° East  Level FlightAware Approximate
Mon 03:29:00 AM 51.7983 -32.9400 82° East  Level FlightAware Approximate
Mon 03:30:00 AM 51.8170 -32.7071 82° East  Level FlightAware Approximate
Mon 03:31:00 AM 51.8353 -32.4741 83° East  Level FlightAware Approximate
Mon 03:32:00 AM 51.8531 -32.2409 83° East  Level FlightAware Approximate
Mon 03:33:00 AM 51.8704 -32.0075 83° East  Level FlightAware Approximate
Mon 03:34:00 AM 51.8873 -31.7739 83° East  Level FlightAware Approximate
Mon 03:35:00 AM 51.9037 -31.5401 83° East  Level FlightAware Approximate
Mon 03:36:00 AM 51.9197 -31.3062 84° East  Level FlightAware Approximate
Mon 03:37:00 AM 51.9351 -31.0721 84° East  Level FlightAware Approximate
Mon 03:38:00 AM 51.9501 -30.8379 84° East  Level FlightAware Approximate
Mon 03:39:00 AM 51.9647 -30.6035 84° East  Level FlightAware Approximate
Mon 03:40:00 AM 51.9788 -30.3689 84° East  Level FlightAware Approximate
Mon 03:41:00 AM 51.9924 -30.1342 85° East  Level FlightAware Approximate
Mon 03:42:00 AM 52.0042 -29.8992 86° East  Level FlightAware Approximate
Mon 03:43:00 AM 52.0138 -29.6639 86° East  Level FlightAware Approximate
Mon 03:44:00 AM 52.0229 -29.4284 86° East  Level FlightAware Approximate
Mon 03:45:00 AM 52.0315 -29.1929 87° East  Level FlightAware Approximate
Mon 03:46:00 AM 52.0396 -28.9572 87° East  Level FlightAware Approximate
Mon 03:47:00 AM 52.0473 -28.7215 87° East  Level FlightAware Approximate
Mon 03:48:00 AM 52.0545 -28.4857 87° East  Level FlightAware Approximate
Mon 03:49:00 AM 52.0612 -28.2499 87° East  Level FlightAware Approximate
Mon 03:50:00 AM 52.0675 -28.0140 87° East  Level FlightAware Approximate
Mon 03:51:00 AM 52.0733 -27.7780 88° East  Level FlightAware Approximate
Mon 03:52:00 AM 52.0786 -27.5419 88° East  Level FlightAware Approximate
Mon 03:53:00 AM 52.0834 -27.3058 88° East  Level FlightAware Approximate
Mon 03:54:00 AM 52.0878 -27.0696 88° East  Level FlightAware Approximate
Mon 03:55:00 AM 52.0917 -26.8334 88° East  Level FlightAware Approximate
Mon 03:56:00 AM 52.0951 -26.5972 89° East  Level FlightAware Approximate
Mon 03:57:00 AM 52.0981 -26.3609 89° East  Level FlightAware Approximate
Mon 03:58:00 AM 52.1006 -26.1246 89° East  Level FlightAware Approximate
Mon 03:59:00 AM 52.1026 -25.8883 89° East  Level FlightAware Approximate
Mon 04:00:00 AM 52.1041 -25.6519 89° East  Level FlightAware Approximate
Mon 04:01:00 AM 52.1052 -25.4156 89° East  Level FlightAware Approximate
Mon 04:02:00 AM 52.1058 -25.1792 90° East  Level FlightAware Approximate
Mon 04:03:00 AM 52.1059 -24.9428 90° East  Level FlightAware Approximate
Mon 04:04:00 AM 52.1055 -24.7065 90° East  Level FlightAware Approximate
Mon 04:05:00 AM 52.1047 -24.4701 90° East  Level FlightAware Approximate
Mon 04:06:00 AM 52.1034 -24.2337 90° East  Level FlightAware Approximate
Mon 04:07:00 AM 52.1017 -23.9974 91° East  Level FlightAware Approximate
Mon 04:08:00 AM 52.0994 -23.7611 91° East  Level FlightAware Approximate
Mon 04:09:00 AM 52.0967 -23.5248 91° East  Level FlightAware Approximate
Mon 04:10:00 AM 52.0935 -23.2885 91° East  Level FlightAware Approximate
Mon 04:11:00 AM 52.0899 -23.0523 91° East  Level FlightAware Approximate
Mon 04:12:00 AM 52.0857 -22.8157 92° East  Level FlightAware Approximate
Mon 04:13:00 AM 52.0811 -22.5792 92° East  Level FlightAware Approximate
Mon 04:14:00 AM 52.0760 -22.3427 92° East  Level FlightAware Approximate
Mon 04:15:00 AM 52.0705 -22.1062 92° East  Level FlightAware Approximate
Mon 04:16:00 AM 52.0644 -21.8699 92° East  Level FlightAware Approximate
Mon 04:17:00 AM 52.0579 -21.6335 92° East  Level FlightAware Approximate
Mon 04:18:00 AM 52.0510 -21.3973 93° East  Level FlightAware Approximate
Mon 04:19:00 AM 52.0435 -21.1611 93° East  Level FlightAware Approximate
Mon 04:20:00 AM 52.0356 -20.9251 93° East  Level FlightAware Approximate
Mon 04:21:00 AM 52.0272 -20.6891 93° East  Level FlightAware Approximate
Mon 04:22:00 AM 52.0183 -20.4531 93° East  Level FlightAware Approximate
Mon 04:23:00 AM 52.0090 -20.2173 94° East  Level FlightAware Approximate
Mon 04:24:00 AM 52.0007 -19.9816 87° East  Level FlightAware Approximate
Mon 04:25:00 AM 52.0092 -19.7458 87° East  Level FlightAware Approximate
Mon 04:26:00 AM 52.0173 -19.5098 87° East  Level FlightAware Approximate
Mon 04:27:00 AM 52.0248 -19.2738 87° East  Level FlightAware Approximate
Mon 04:28:00 AM 52.0319 -19.0377 87° East  Level FlightAware Approximate
Mon 04:29:00 AM 52.0386 -18.8016 87° East  Level FlightAware Approximate
Mon 04:30:00 AM 52.0448 -18.5653 87° East  Level FlightAware Approximate
Mon 04:31:00 AM 52.0504 -18.3290 88° East  Level FlightAware Approximate
Mon 04:32:00 AM 52.0557 -18.0927 88° East  Level FlightAware Approximate
Mon 04:33:00 AM 52.0604 -17.8563 88° East  Level FlightAware Approximate
Mon 04:34:00 AM 52.0647 -17.6202 88° East  Level FlightAware Approximate
Mon 04:35:00 AM 52.0686 -17.3841 88° East  Level FlightAware Approximate
Mon 04:36:00 AM 52.0722 -17.1480 88° East  Level FlightAware Approximate
Mon 04:37:00 AM 52.0754 -16.9119 89° East  Level FlightAware Approximate
Mon 04:38:00 AM 52.0780 -16.6757 89° East  Level FlightAware Approximate
Mon 04:39:00 AM 52.0802 -16.4395 89° East  Level FlightAware Approximate
Mon 04:40:00 AM 52.0819 -16.2033 89° East  Level FlightAware Approximate
Mon 04:41:00 AM 52.0832 -15.9670 89° East  Level FlightAware Approximate
Mon 04:42:00 AM 52.0839 -15.7308 90° East  Level FlightAware Approximate
Mon 04:42:48 AM 51.9970 -12.3800 90° East 532 612 33,000  Level FlightAware ADS-B
Mon 04:43:00 AM 52.0842 -15.4945 90° East  Level FlightAware Approximate
Mon 04:43:24 AM 51.9960 -12.2580 91° East 532 612 33,000  Level FlightAware ADS-B
Mon 04:44:04 AM 51.9930 -12.0720 91° East 531 611 33,000  Level FlightAware ADS-B
Mon 04:44:36 AM 51.9910 -11.9290 91° East 545 627 33,000  Level FlightAware ADS-B
Mon 04:45:16 AM 51.9890 -11.7780 91° East 530 610 33,000  Level FlightAware ADS-B
Mon 04:45:51 AM 51.9860 -11.6390 92° East 529 609 33,000  Level FlightAware ADS-B
Mon 04:46:29 AM 51.9830 -11.4810 92° East 529 609 33,000  Level FlightAware ADS-B
Mon 04:46:59 AM 51.9810 -11.3620 92° East 528 608 33,000  Level FlightAware ADS-B
Mon 04:47:35 AM 51.9780 -11.2440 92° East 527 606 33,000  Level FlightAware ADS-B
Mon 04:48:22 AM 51.9740 -11.0560 92° East 522 601 33,000  Level FlightAware ADS-B
Mon 04:48:53 AM 51.9710 -10.9390 92° East 520 598 33,000  Level FlightAware ADS-B
Mon 04:49:29 AM 51.9670 -10.7760 92° East 516 594 33,000  Level FlightAware ADS-B
Mon 04:50:04 AM 51.9640 -10.6530 92° East 516 594 33,000  Level FlightAware ADS-B
Mon 04:50:34 AM 51.9600 -10.5340 93° East 516 594 33,000  Level FlightAware ADS-B
Mon 04:51:16 AM 51.9560 -10.3800 92° East 515 593 33,000  Level FlightAware ADS-B
Mon 04:51:46 AM 51.9520 -10.2490 93° East 515 593 33,000  Level FlightAware ADS-B
Mon 04:52:24 AM 51.9480 -10.1160 93° East 512 589 33,000  Level FlightAware ADS-B
Mon 04:52:59 AM 51.9440 -9.9780 93° East 512 589 33,000  Level FlightAware ADS-B
Mon 04:53:35 AM 51.9390 -9.8410 93° East 510 587 33,000  Level FlightAware ADS-B
Mon 04:54:17 AM 51.9340 -9.6930 93° East 508 585 33,000  Level FlightAware ADS-B
Mon 04:54:51 AM 51.9290 -9.5450 93° East 508 585 33,000  Level FlightAware ADS-B
Mon 04:55:26 AM 51.9240 -9.4090 93° East 507 583 33,000  Level FlightAware ADS-B
Mon 04:56:01 AM 51.9190 -9.2760 93° East 508 585 33,000  Level FlightAware ADS-B
Mon 04:56:36 AM 51.9140 -9.1470 94° East 506 582 33,000  Level FlightAware ADS-B
Mon 04:57:11 AM 51.9080 -9.0160 94° East 505 581 33,000  Level FlightAware ADS-B
Mon 04:57:50 AM 51.9016 -8.8600 94° East 492 566 33,000  Level FlightAware UK
Mon 04:57:52 AM 51.9020 -8.8620 94° East 502 578 33,000  Level FlightAware ADS-B
Mon 04:58:28 AM 51.8960 -8.7280 94° East 500 575 33,000  Level FlightAware ADS-B
Mon 04:59:03 AM 51.8900 -8.5930 94° East 499 574 33,000  Level FlightAware ADS-B
Mon 04:59:34 AM 51.8850 -8.4850 94° East 501 577 33,000  Level FlightAware ADS-B
Mon 05:00:16 AM 51.8780 -8.3210 94° East 502 578 33,000  Level FlightAware ADS-B
Mon 05:00:48 AM 51.8720 -8.2080 94° East 504 580 33,000  Level FlightAware ADS-B
Mon 05:00:50 AM 51.8715 -8.1879 94° East 490 564 33,000 563 Level FlightAware UK
Mon 05:01:20 AM 51.8661 -8.0752 94° East 492 566 33,300 706 Climbing FlightAware UK
Mon 05:01:24 AM 51.8650 -8.0620 94° East 507 583 33,400 1,500 Climbing FlightAware ADS-B
Mon 05:02:00 AM 51.8590 -7.9300 94° East 506 582 34,300 1,164 Climbing FlightAware ADS-B
Mon 05:02:31 AM 51.8530 -7.8160 95° East 510 587 34,700 609 Climbing FlightAware ADS-B
Mon 05:03:09 AM 51.8470 -7.6900 94° East 513 590 35,000 250 Climbing FlightAware ADS-B
Mon 05:03:43 AM 51.8390 -7.5490 95° East 514 592 35,000  Level FlightAware ADS-B
Mon 05:04:19 AM 51.8310 -7.4070 95° East 514 592 35,000  Level FlightAware ADS-B
Mon 05:04:55 AM 51.8230 -7.2620 95° East 514 592 35,000  Level FlightAware ADS-B
Mon 05:04:56 AM 51.8229 -7.2518 95° East 500 575 35,000  Level FlightAware UK
Mon 05:05:26 AM 51.8165 -7.1373 95° East 498 573 35,000  Level FlightAware UK
Mon 05:05:30 AM 51.8160 -7.1240 95° East 513 590 35,000  Level FlightAware ADS-B
Mon 05:06:03 AM 51.8090 -7.0030 95° East 511 588 35,000  Level FlightAware ADS-B
Mon 05:06:38 AM 51.8010 -6.8700 96° East 511 588 35,000  Level FlightAware ADS-B
Mon 05:07:14 AM 51.7930 -6.7330 95° East 510 587 35,000  Level FlightAware ADS-B
Mon 05:07:50 AM 51.7860 -6.5970 95° East 510 587 35,000  Level FlightAware ADS-B
Mon 05:08:22 AM 51.7830 -6.4750 92° East 509 586 35,000  Level FlightAware ADS-B
Mon 05:08:57 AM 51.7789 -6.3397 92° East 498 573 35,000  Level FlightAware UK
Mon 05:08:58 AM 51.7790 -6.3350 92° East 508 585 35,000  Level FlightAware ADS-B
Mon 05:09:34 AM 51.7740 -6.2040 93° East 505 581 35,000  Level FlightAware ADS-B
Mon 05:10:08 AM 51.7690 -6.0720 93° East 505 581 35,000  Level FlightAware ADS-B
Mon 05:10:46 AM 51.7630 -5.9300 94° East 504 580 35,000  Level FlightAware ADS-B
Mon 05:11:18 AM 51.7580 -5.8100 94° East 504 580 35,000  Level FlightAware ADS-B
Mon 05:11:55 AM 51.7520 -5.6750 94° East 505 581 35,000  Level FlightAware ADS-B
Mon 05:12:27 AM 51.7469 -5.5490 94° East 496 571 35,000  Level FlightAware UK
Mon 05:12:31 AM 51.7460 -5.5400 94° East 505 581 35,000  Level FlightAware ADS-B
Mon 05:13:07 AM 51.7410 -5.4120 94° East 505 581 35,000  Level FlightAware ADS-B
Mon 05:13:39 AM 51.7350 -5.2930 95° East 502 578 35,000  Level FlightAware ADS-B
Mon 05:14:16 AM 51.7280 -5.1480 94° East 500 575 35,000  Level FlightAware ADS-B
Mon 05:14:48 AM 51.7230 -5.0290 94° East 500 575 35,000  Level FlightAware ADS-B
Mon 05:15:26 AM 51.7160 -4.8850 94° East 499 574 35,000  Level FlightAware ADS-B
Mon 05:16:02 AM 51.7090 -4.7590 95° East 497 572 35,000  Level FlightAware ADS-B
Mon 05:16:34 AM 51.7030 -4.6330 94° East 496 571 35,000  Level FlightAware ADS-B
Mon 05:17:08 AM 51.6970 -4.5080 94° East 496 571 35,000  Level FlightAware ADS-B
Mon 05:17:42 AM 51.6900 -4.3870 95° East 496 571 35,000  Level FlightAware ADS-B
Mon 05:18:21 AM 51.6830 -4.2430 94° East 495 570 35,000  Level FlightAware ADS-B
Mon 05:18:51 AM 51.6761 -4.1281 94° East 494 568 35,000  Level FlightAware UK
Mon 05:18:53 AM 51.6760 -4.1300 94° East 495 570 35,000  Level FlightAware ADS-B
Mon 05:19:31 AM 51.6680 -3.9870 95° East 496 571 35,000  Level FlightAware ADS-B
Mon 05:19:55 AM 51.6630 -3.8990 95° East 495 570 35,000  Level FlightAware ADS-B
Mon 05:20:51 AM 51.6505 -3.6878 95° East 496 571 35,000  Level FlightAware UK
Mon 05:21:43 AM 51.6420 -3.5550 95° East 494 568 35,000  Level FlightAware ADS-B
Mon 05:21:51 AM 51.6371 -3.4679 95° East 492 566 35,000  Level FlightAware UK
Mon 05:22:25 AM 51.6330 -3.4020 95° East 493 567 35,000  Level FlightAware ADS-B
Mon 05:22:35 AM 51.6273 -3.3104 96° East 493 567 35,000  Level FlightAware ADS-B
Mon 05:23:07 AM 51.6199 -3.1937 96° East 494 568 35,000  Level FlightAware ADS-B
Mon 05:23:37 AM 51.6127 -3.0845 96° East 494 568 35,000  Level FlightAware ADS-B
Mon 05:24:10 AM 51.6049 -2.9640 96° East 495 570 35,000  Level FlightAware ADS-B
Mon 05:24:44 AM 51.5967 -2.8436 96° East 496 571 35,000  Level FlightAware ADS-B
Mon 05:25:16 AM 51.5888 -2.7264 96° East 496 571 35,000  Level FlightAware ADS-B
Mon 05:25:47 AM 51.5810 -2.6130 96° East 496 571 35,000  Level FlightAware ADS-B
Mon 05:26:17 AM 51.5733 -2.4996 96° East 496 571 35,000  Level FlightAware ADS-B
Mon 05:26:48 AM 51.5653 -2.3866 96° East 496 571 35,000  Level FlightAware ADS-B
Mon 05:27:18 AM 51.5576 -2.2768 96° East 495 570 35,000  Level FlightAware ADS-B
Mon 05:27:52 AM 51.5485 -2.1528 97° East 495 570 35,000  Level FlightAware ADS-B
Mon 05:28:26 AM 51.5395 -2.0325 97° East 495 570 35,000  Level FlightAware ADS-B
Mon 05:28:56 AM 51.5311 -1.9197 97° East 495 570 35,000  Level FlightAware ADS-B
Mon 05:29:27 AM 51.5227 -1.8070 97° East 494 568 35,000  Level FlightAware ADS-B
Mon 05:29:58 AM 51.5142 -1.6982 97° East 494 568 35,000  Level FlightAware ADS-B
Mon 05:30:28 AM 51.5056 -1.5858 97° East 493 567 35,000  Level FlightAware ADS-B
Mon 05:31:03 AM 51.4959 -1.4630 97° East 492 566 35,000  Level FlightAware ADS-B
Mon 05:31:33 AM 51.4872 -1.3510 97° East 491 565 35,000  Level FlightAware ADS-B
Mon 05:32:03 AM 51.4783 -1.2427 97° East 492 566 35,000  Level FlightAware ADS-B
Mon 05:32:34 AM 51.4693 -1.1342 98° East 493 567 35,000  Level FlightAware ADS-B
Mon 05:33:04 AM 51.4604 -1.0254 97° East 494 568 35,000  Level FlightAware ADS-B
Mon 05:33:36 AM 51.4505 -0.9056 98° East 494 568 35,000  Level FlightAware ADS-B
Mon 05:34:07 AM 51.4409 -0.7935 98° East 493 567 35,000  Level FlightAware ADS-B
Mon 05:34:39 AM 51.4311 -0.6782 98° East 492 566 35,000  Level FlightAware ADS-B
Mon 05:35:11 AM 51.4212 -0.5630 98° East 490 564 35,000  Level FlightAware ADS-B
Mon 05:35:42 AM 51.4115 -0.4559 98° East 488 562 35,000  Level FlightAware ADS-B
Mon 05:36:20 AM 51.3995 -0.3170 98° East 486 559 35,000  Level FlightAware ADS-B
Mon 05:36:51 AM 51.3897 -0.2104 98° East 485 558 35,000  Level FlightAware ADS-B
Mon 05:37:24 AM 51.3791 -0.0936 98° East 484 557 35,000  Level FlightAware ADS-B
Mon 05:37:54 AM 51.3692 0.0160 98° East 483 556 35,000  Level FlightAware ADS-B
Mon 05:38:24 AM 51.3593 0.1216 98° East 482 555 35,000  Level FlightAware ADS-B
Mon 05:38:56 AM 51.3488 0.2343 98° East 483 556 35,000  Level FlightAware ADS-B
Mon 05:39:30 AM 51.3374 0.3548 98° East 488 562 35,000  Level FlightAware UK
Mon 05:39:41 AM 51.3336 0.3932 98° East 483 556 35,000  Level FlightAware ADS-B
Mon 05:40:12 AM 51.3231 0.5029 99° East 485 558 35,000  Level FlightAware ADS-B
Mon 05:40:43 AM 51.3127 0.6089 99° East 486 559 35,000  Level FlightAware ADS-B
Mon 05:41:13 AM 51.3022 0.7153 99° East 487 560 35,000  Level FlightAware ADS-B
Mon 05:41:45 AM 51.2910 0.8289 99° East 489 563 35,000  Level FlightAware ADS-B
Mon 05:42:16 AM 51.2799 0.9431 99° East 491 565 35,000  Level FlightAware ADS-B
Mon 05:42:46 AM 51.2690 1.0505 99° East 492 566 35,000  Level FlightAware ADS-B
Mon 05:43:21 AM 51.2563 1.1725 99° East 494 568 35,000  Level FlightAware ADS-B
Mon 05:44:19 AM 51.2348 1.3841 99° East 492 566 35,000  Level FlightAware UK
Mon 05:44:23 AM 51.2330 1.3950 99° East 495 570 35,000  Level FlightAware ADS-B
Mon 05:44:57 AM 51.2200 1.5210 99° East 496 571 35,000  Level FlightAware ADS-B
Mon 05:45:34 AM 51.2060 1.6550 99° East 496 571 35,000  Level FlightAware ADS-B
Mon 05:46:07 AM 51.1940 1.7700 99° East 498 573 35,000  Level FlightAware ADS-B
Mon 05:46:44 AM 51.1780 1.9040 101° East 498 573 35,000  Level FlightAware ADS-B
Mon 05:47:18 AM 51.1610 2.0280 102° East 495 570 35,000  Level FlightAware ADS-B
Mon 05:47:49 AM 51.1430 2.1370 105° East 493 567 35,000  Level FlightAware ADS-B
Mon 05:48:28 AM 51.1190 2.2700 106° East 492 566 35,000  Level FlightAware ADS-B
Mon 05:48:48 AM 51.1056 2.3389 107° East 493 567 35,000  Level FlightAware ADS-B
Mon 05:49:39 AM 51.0720 2.5200 106° East 495 570 35,000  Level FlightAware ADS-B
Mon 05:50:12 AM 51.0510 2.6310 107° East 496 571 35,000  Level FlightAware ADS-B
Mon 05:50:47 AM 51.0270 2.7570 107° East 498 573 35,000  Level FlightAware ADS-B
Mon 05:51:21 AM 51.0040 2.8760 107° East 499 574 35,000  Level FlightAware ADS-B
Mon 05:51:55 AM 50.9811 2.9968 107° East 492 566 35,000  Level FlightAware UK
Mon 05:52:00 AM 50.9800 3.0020 107° East 500 575 35,000  Level FlightAware ADS-B
Mon 05:52:31 AM 50.9580 3.1140 107° East 500 575 35,000  Level FlightAware ADS-B
Mon 05:53:07 AM 50.9350 3.2370 106° East 501 577 35,000  Level FlightAware ADS-B
Mon 05:53:37 AM 50.9115 3.3549 106° East 492 566 35,000  Level FlightAware UK
Mon 05:53:39 AM 50.9110 3.3590 106° East 502 578 35,000  Level FlightAware ADS-B
Mon 05:54:17 AM 50.8860 3.4860 107° East 503 579 35,000  Level FlightAware ADS-B
Mon 05:54:50 AM 50.8640 3.5980 107° East 503 579 35,000  Level FlightAware ADS-B
Mon 05:55:28 AM 50.8360 3.7390 107° East 504 580 35,000  Level FlightAware ADS-B
Mon 05:56:01 AM 50.8130 3.8510 108° East 505 581 35,000  Level FlightAware ADS-B
Mon 05:56:42 AM 50.7840 3.9990 107° East 503 579 35,000  Level FlightAware ADS-B
Mon 05:57:22 AM 50.7560 4.1360 108° East 501 577 35,000  Level FlightAware ADS-B
Mon 05:57:52 AM 50.7340 4.2440 108° East 501 577 35,000  Level FlightAware ADS-B
Mon 05:58:26 AM 50.7097 4.3665 108° East 494 568 35,000  Level FlightAware UK
Mon 05:58:27 AM 50.7100 4.3660 108° East 500 575 35,000  Level FlightAware ADS-B
Mon 05:59:02 AM 50.6850 4.4840 108° East 501 577 35,000  Level FlightAware ADS-B
Mon 05:59:42 AM 50.6490 4.6210 112° Southeast 492 566 35,000  Level FlightAware ADS-B
Mon 06:00:13 AM 50.6150 4.7120 120° Southeast 492 566 35,000  Level FlightAware ADS-B
Mon 06:00:48 AM 50.5720 4.8210 122° Southeast 492 566 35,000  Level FlightAware ADS-B
Mon 06:01:27 AM 50.5250 4.9350 123° Southeast 487 560 35,000  Level FlightAware ADS-B
Mon 06:01:57 AM 50.4890 5.0230 123° Southeast 488 562 35,000  Level FlightAware ADS-B
Mon 06:02:35 AM 50.4400 5.1430 123° Southeast 492 566 35,000  Level FlightAware ADS-B
Mon 06:03:06 AM 50.4020 5.2380 122° Southeast 491 565 35,000  Level FlightAware ADS-B
Mon 06:03:44 AM 50.3550 5.3490 124° Southeast 491 565 35,000  Level FlightAware ADS-B
Mon 06:04:19 AM 50.3130 5.4540 122° Southeast 492 566 35,000  Level FlightAware ADS-B
Mon 06:04:53 AM 50.2700 5.5550 124° Southeast 492 566 35,000  Level FlightAware ADS-B
Mon 06:05:27 AM 50.2260 5.6590 123° Southeast 494 568 35,000  Level FlightAware ADS-B
Mon 06:06:03 AM 50.1830 5.7640 123° Southeast 495 570 35,000  Level FlightAware ADS-B
Mon 06:06:40 AM 50.1350 5.8770 124° Southeast 497 572 35,000  Level FlightAware ADS-B
Mon 06:07:16 AM 50.0900 5.9850 123° Southeast 497 572 35,000  Level FlightAware ADS-B
Mon 06:07:50 AM 50.0480 6.0830 124° Southeast 498 573 35,000  Level FlightAware ADS-B
Mon 06:08:22 AM 50.0080 6.1790 123° Southeast 498 573 35,000  Level FlightAware ADS-B
Mon 06:08:57 AM 49.9610 6.2860 124° Southeast 499 574 35,000  Level FlightAware ADS-B
Mon 06:09:35 AM 49.9120 6.4030 123° Southeast 500 575 35,000  Level FlightAware ADS-B
Mon 06:10:07 AM 49.8700 6.4980 124° Southeast 501 577 35,000  Level FlightAware ADS-B
Mon 06:10:51 AM 49.8150 6.6260 124° Southeast 502 578 35,000  Level FlightAware ADS-B
Mon 06:11:25 AM 49.7710 6.7280 124° Southeast 502 578 35,000  Level FlightAware ADS-B
Mon 06:11:59 AM 49.7310 6.8170 125° Southeast 503 579 35,000  Level FlightAware ADS-B
Mon 06:12:37 AM 49.6760 6.9450 124° Southeast 504 580 35,000  Level FlightAware ADS-B
Mon 06:13:11 AM 49.6320 7.0430 125° Southeast 504 580 35,000  Level FlightAware ADS-B
Mon 06:13:47 AM 49.5840 7.1500 125° Southeast 504 580 35,000  Level FlightAware ADS-B
Mon 06:14:23 AM 49.5370 7.2600 123° Southeast 505 581 35,000  Level FlightAware ADS-B
Mon 06:14:55 AM 49.4960 7.3510 125° Southeast 504 580 35,000  Level FlightAware ADS-B
Mon 06:15:31 AM 49.4490 7.4550 125° Southeast 505 581 35,000  Level FlightAware ADS-B
Mon 06:16:08 AM 49.3990 7.5670 124° Southeast 506 582 35,000  Level FlightAware ADS-B
Mon 06:16:40 AM 49.3590 7.6560 125° Southeast 506 582 35,000  Level FlightAware ADS-B
Mon 06:17:17 AM 49.3080 7.7670 125° Southeast 507 583 35,000  Level FlightAware ADS-B
Mon 06:17:53 AM 49.2590 7.8770 124° Southeast 507 583 35,000  Level FlightAware ADS-B
Mon 06:18:28 AM 49.2130 7.9770 125° Southeast 507 583 35,000  Level FlightAware ADS-B
Mon 06:18:59 AM 49.1710 8.0710 124° Southeast 507 583 35,000  Level FlightAware ADS-B
Mon 06:19:41 AM 49.1170 8.1880 125° Southeast 507 583 35,000  Level FlightAware ADS-B
Mon 06:20:01 AM 49.0890 8.2500 125° Southeast 507 583 35,000  Level FlightAware ADS-B
Mon 06:21:23 AM 48.9770 8.4660 128° Southeast 502 578 35,000  Level FlightAware ADS-B
Mon 06:22:01 AM 48.9020 8.5730 137° Southeast 501 577 35,000  Level FlightAware ADS-B
Mon 06:22:37 AM 48.8410 8.6560 138° Southeast 499 574 35,000  Level FlightAware ADS-B
Mon 06:23:10 AM 48.7860 8.7340 137° Southeast 498 573 35,000  Level FlightAware ADS-B
Mon 06:24:09 AM 48.7200 8.8260 137° Southeast 499 574 35,000  Level FlightAware ADS-B
Mon 06:24:45 AM 48.6250 8.9550 138° Southeast 499 574 35,000  Level FlightAware ADS-B
Mon 06:25:20 AM 48.5680 9.0350 137° Southeast 499 574 35,000  Level FlightAware ADS-B
Mon 06:25:55 AM 48.5080 9.1170 138° Southeast 500 575 35,000  Level FlightAware ADS-B
Mon 06:26:30 AM 48.4480 9.1990 138° Southeast 501 577 35,000  Level FlightAware ADS-B
Mon 06:27:05 AM 48.3840 9.2850 138° Southeast 502 578 35,000  Level FlightAware ADS-B
Mon 06:27:36 AM 48.3450 9.3400 137° Southeast 504 580 35,000  Level FlightAware ADS-B
Mon 06:28:10 AM 48.2830 9.4240 138° Southeast 505 581 35,000  Level FlightAware ADS-B
Mon 06:29:04 AM 48.1780 9.5640 138° Southeast 506 582 35,000  Level FlightAware ADS-B
Mon 06:29:42 AM 48.1100 9.6520 139° Southeast 507 583 35,000  Level FlightAware ADS-B
Mon 06:30:14 AM 48.0540 9.7260 139° Southeast 507 583 35,000  Level FlightAware ADS-B
Mon 06:30:46 AM 48.0030 9.8020 135° Southeast 509 586 35,000  Level FlightAware ADS-B
Mon 06:31:20 AM 47.9450 9.8850 136° Southeast 509 586 35,000 316 Level FlightAware ADS-B
Mon 06:32:02 AM 47.8710 9.9930 136° Southeast 509 586 35,400 811 Climbing FlightAware ADS-B
Mon 06:32:34 AM 47.8170 10.0710 136° Southeast 508 585 36,000 1,235 Climbing FlightAware ADS-B
Mon 06:33:10 AM 47.7570 10.1550 137° Southeast 507 583 36,800 845 Climbing FlightAware ADS-B
Mon 06:33:45 AM 47.6980 10.2370 137° Southeast 510 587 37,000 171 Climbing FlightAware ADS-B
Mon 06:34:20 AM 47.6380 10.3230 136° Southeast 508 585 37,000  Level FlightAware ADS-B
Mon 06:34:56 AM 47.5800 10.4050 136° Southeast 508 585 37,000  Level FlightAware ADS-B
Mon 06:35:32 AM 47.5130 10.4980 137° Southeast 508 585 37,000  Level FlightAware ADS-B
Mon 06:36:08 AM 47.4520 10.5830 137° Southeast 507 583 37,000  Level FlightAware ADS-B
Mon 06:36:39 AM 47.4000 10.6550 137° Southeast 508 585 37,000  Level FlightAware ADS-B
Mon 06:37:21 AM 47.3370 10.7430 137° Southeast 507 583 37,000  Level FlightAware ADS-B
Mon 06:37:53 AM 47.2800 10.8210 137° Southeast 508 585 37,000  Level FlightAware ADS-B
Mon 06:38:36 AM 47.2080 10.9200 137° Southeast 508 585 37,000  Level FlightAware ADS-B
Mon 06:39:16 AM 47.1310 11.0260 137° Southeast 506 582 37,000  Level FlightAware ADS-B
Mon 06:39:46 AM 47.0810 11.0940 137° Southeast 505 581 37,000  Level FlightAware ADS-B
Mon 06:40:24 AM 47.0220 11.1760 137° Southeast 505 581 37,000  Level FlightAware ADS-B
Mon 06:40:54 AM 46.9740 11.2410 137° Southeast 503 579 37,000  Level FlightAware ADS-B
Mon 06:41:32 AM 46.9020 11.3380 137° Southeast 503 579 37,000  Level FlightAware ADS-B
Mon 06:42:12 AM 46.8320 11.4320 137° Southeast 501 577 37,000  Level FlightAware ADS-B
Mon 06:42:42 AM 46.7800 11.5030 137° Southeast 500 575 37,000  Level FlightAware ADS-B
Mon 06:43:17 AM 46.7220 11.5810 137° Southeast 498 573 37,000  Level FlightAware ADS-B
Mon 06:43:53 AM 46.6660 11.6550 138° Southeast 491 565 37,000  Level FlightAware ADS-B
Mon 06:44:27 AM 46.6100 11.7300 137° Southeast 490 564 37,000  Level FlightAware ADS-B
Mon 06:45:03 AM 46.5440 11.8170 138° Southeast 488 562 37,000  Level FlightAware ADS-B
Mon 06:45:37 AM 46.4860 11.8950 137° Southeast 488 562 37,000  Level FlightAware ADS-B
Mon 06:46:12 AM 46.4280 11.9710 138° Southeast 488 562 37,000  Level FlightAware ADS-B
Mon 06:46:47 AM 46.3660 12.0530 138° Southeast 487 560 37,000  Level FlightAware ADS-B
Mon 06:47:23 AM 46.3050 12.1330 138° Southeast 493 567 37,000  Level FlightAware ADS-B
Mon 06:48:02 AM 46.2380 12.2190 138° Southeast 492 566 37,000  Level FlightAware ADS-B
Mon 06:48:32 AM 46.1860 12.2870 138° Southeast 492 566 37,000  Level FlightAware ADS-B
Mon 06:49:09 AM 46.1280 12.3640 137° Southeast 486 559 37,000  Level FlightAware ADS-B
Mon 06:49:44 AM 46.0680 12.4410 138° Southeast 486 559 37,000  Level FlightAware ADS-B
Mon 06:50:19 AM 46.0080 12.5200 138° Southeast 486 559 37,000  Level FlightAware ADS-B
Mon 06:50:54 AM 45.9500 12.5940 138° Southeast 485 558 37,000  Level FlightAware ADS-B
Mon 06:51:29 AM 45.8890 12.6720 138° Southeast 484 557 37,000  Level FlightAware ADS-B
Mon 06:52:04 AM 45.8310 12.7460 138° Southeast 483 556 37,000  Level FlightAware ADS-B
Mon 06:52:39 AM 45.7710 12.8230 138° Southeast 483 556 37,000  Level FlightAware ADS-B
Mon 06:53:14 AM 45.7130 12.8960 139° Southeast 484 557 37,000  Level FlightAware ADS-B
Mon 06:53:49 AM 45.6540 12.9720 138° Southeast 484 557 37,000  Level FlightAware ADS-B
Mon 06:54:29 AM 45.5860 13.0570 139° Southeast 483 556 37,000  Level FlightAware ADS-B
Mon 06:55:04 AM 45.5250 13.1340 138° Southeast 491 565 37,000  Level FlightAware ADS-B
Mon 06:55:39 AM 45.4670 13.2070 139° Southeast 491 565 37,000  Level FlightAware ADS-B
Mon 06:56:14 AM 45.4100 13.2780 139° Southeast 491 565 37,000  Level FlightAware ADS-B
Mon 06:56:49 AM 45.3470 13.3570 139° Southeast 491 565 37,000  Level FlightAware ADS-B
Mon 06:57:24 AM 45.2930 13.4250 138° Southeast 491 565 37,000  Level FlightAware ADS-B
Mon 06:57:59 AM 45.2380 13.5200 129° Southeast 495 570 37,000  Level FlightAware ADS-B
Mon 06:58:34 AM 45.1910 13.6110 126° Southeast 494 568 37,000  Level FlightAware ADS-B
Mon 06:59:09 AM 45.1430 13.6990 128° Southeast 495 570 37,000  Level FlightAware ADS-B
Mon 06:59:44 AM 45.0930 13.7880 128° Southeast 495 570 37,000  Level FlightAware ADS-B
Mon 07:00:20 AM 45.0400 13.8810 129° Southeast 490 564 37,000  Level FlightAware ADS-B
Mon 07:00:54 AM 44.9910 13.9660 129° Southeast 490 564 37,000  Level FlightAware ADS-B
Mon 07:01:30 AM 44.9410 14.0540 129° Southeast 494 568 37,000  Level FlightAware ADS-B
Mon 07:02:07 AM 44.8880 14.1500 128° Southeast 493 567 37,000  Level FlightAware ADS-B
Mon 07:02:37 AM 44.8480 14.2210 128° Southeast 492 566 37,000  Level FlightAware ADS-B
Mon 07:03:15 AM 44.7930 14.3230 127° Southeast 492 566 37,000  Level FlightAware ADS-B
Mon 07:03:51 AM 44.7410 14.4160 128° Southeast 493 567 37,000  Level FlightAware ADS-B
Mon 07:04:21 AM 44.6980 14.4920 129° Southeast 492 566 37,000  Level FlightAware ADS-B
Mon 07:05:06 AM 44.6400 14.5970 128° Southeast 492 566 37,000  Level FlightAware ADS-B
Mon 07:05:48 AM 44.5800 14.7030 128° Southeast 492 566 37,000  Level FlightAware ADS-B
Mon 07:06:33 AM 44.5140 14.8200 128° Southeast 492 566 37,000  Level FlightAware ADS-B
Mon 07:07:11 AM 44.4670 14.9050 128° Southeast 492 566 37,000  Level FlightAware ADS-B
Mon 07:07:51 AM 44.4050 15.0130 129° Southeast 492 566 37,000  Level FlightAware ADS-B
Mon 07:08:28 AM 44.3550 15.1020 128° Southeast 494 568 37,000  Level FlightAware ADS-B
Mon 07:09:15 AM 44.2890 15.2170 129° Southeast 494 568 37,000  Level FlightAware ADS-B
Mon 07:09:47 AM 44.2420 15.2990 129° Southeast 494 568 37,000  Level FlightAware ADS-B
Mon 07:10:27 AM 44.1860 15.3960 129° Southeast 493 567 37,000  Level FlightAware ADS-B
Mon 07:10:57 AM 44.1410 15.4750 128° Southeast 494 568 37,000  Level FlightAware ADS-B
Mon 07:11:46 AM 44.0750 15.5890 129° Southeast 493 567 37,000  Level FlightAware ADS-B
Mon 07:12:22 AM 44.0200 15.6860 128° Southeast 493 567 37,000  Level FlightAware ADS-B
Mon 07:12:57 AM 43.9670 15.7740 130° Southeast 493 567 37,000  Level FlightAware ADS-B
Mon 07:13:32 AM 43.9180 15.8580 129° Southeast 492 566 37,000  Level FlightAware ADS-B
Mon 07:14:07 AM 43.8670 15.9460 129° Southeast 492 566 37,000  Level FlightAware ADS-B
Mon 07:14:43 AM 43.8180 16.0360 127° Southeast 494 568 37,000  Level FlightAware ADS-B
Mon 07:15:17 AM 43.7740 16.1170 127° Southeast 493 567 37,000  Level FlightAware ADS-B
Mon 07:15:54 AM 43.7190 16.2180 127° Southeast 493 567 37,000  Level FlightAware ADS-B
Mon 07:16:29 AM 43.6720 16.3060 126° Southeast 492 566 37,000  Level FlightAware ADS-B
Mon 07:17:07 AM 43.6200 16.3990 128° Southeast 486 559 37,000  Level FlightAware ADS-B
Mon 07:17:43 AM 43.5720 16.4860 127° Southeast 486 559 37,000  Level FlightAware ADS-B
Mon 07:18:22 AM 43.5180 16.5850 127° Southeast 486 559 37,000  Level FlightAware ADS-B
Mon 07:18:52 AM 43.4750 16.6620 128° Southeast 486 559 37,000  Level FlightAware ADS-B
Mon 07:19:27 AM 43.4270 16.7490 127° Southeast 487 560 37,000  Level FlightAware ADS-B
Mon 07:19:52 AM 43.3950 16.8060 128° Southeast 488 562 37,000  Level FlightAware ADS-B
Mon 07:20:55 AM 43.3230 16.9330 128° Southeast 488 562 37,000  Level FlightAware ADS-B
Mon 07:21:37 AM 43.2460 17.0710 127° Southeast 488 562 37,000  Level FlightAware ADS-B
Mon 07:22:07 AM 43.2070 17.1410 127° Southeast 488 562 37,000  Level FlightAware ADS-B
Mon 07:22:42 AM 43.1560 17.2320 128° Southeast 489 563 37,000  Level FlightAware ADS-B
Mon 07:23:12 AM 43.1150 17.3040 128° Southeast 489 563 37,000  Level FlightAware ADS-B
Mon 07:24:30 AM 43.0060 17.4960 128° Southeast 494 568 37,000  Level FlightAware ADS-B
Mon 07:25:05 AM 42.9540 17.5840 129° Southeast 493 567 37,000  Level FlightAware ADS-B
Mon 07:25:39 AM 42.9060 17.6700 127° Southeast 493 567 37,000  Level FlightAware ADS-B
Mon 07:26:11 AM 42.8620 17.7460 128° Southeast 494 568 37,000  Level FlightAware ADS-B
Mon 07:26:47 AM 42.8100 17.8360 128° Southeast 494 568 37,000  Level FlightAware ADS-B
Mon 07:27:17 AM 42.7700 17.9050 128° Southeast 495 570 37,000  Level FlightAware ADS-B
Mon 07:28:00 AM 42.7070 18.0150 128° Southeast 494 568 37,000  Level FlightAware ADS-B
Mon 07:28:36 AM 42.6570 18.1000 129° Southeast 496 571 37,000  Level FlightAware ADS-B
Mon 07:29:08 AM 42.6120 18.1760 129° Southeast 495 570 37,000  Level FlightAware ADS-B
Mon 07:29:42 AM 42.5630 18.2600 128° Southeast 495 570 37,000  Level FlightAware ADS-B
Mon 07:30:20 AM 42.5020 18.3460 134° Southeast 496 571 37,000  Level FlightAware ADS-B
Mon 07:30:56 AM 42.4410 18.4250 136° Southeast 498 573 37,000  Level FlightAware ADS-B
Mon 07:31:28 AM 42.3890 18.4910 137° Southeast 499 574 37,000  Level FlightAware ADS-B
Mon 07:32:04 AM 42.3280 18.5730 135° Southeast 499 574 37,000  Level FlightAware ADS-B
Mon 07:32:40 AM 42.2710 18.6500 135° Southeast 499 574 37,000  Level FlightAware ADS-B
Mon 07:33:14 AM 42.2180 18.7240 134° Southeast 499 574 37,000  Level FlightAware ADS-B
Mon 07:33:47 AM 42.1640 18.7960 135° Southeast 498 573 37,000  Level FlightAware ADS-B
Mon 07:34:18 AM 42.1140 18.8640 135° Southeast 497 572 37,000  Level FlightAware ADS-B
Mon 07:35:00 AM 42.0430 18.9580 135° Southeast 495 570 37,000  Level FlightAware ADS-B
Mon 07:35:36 AM 41.9830 19.0380 135° Southeast 495 570 37,000  Level FlightAware ADS-B
Mon 07:36:14 AM 41.9210 19.1200 135° Southeast 495 570 37,000  Level FlightAware ADS-B
Mon 07:36:53 AM 41.8580 19.2040 135° Southeast 497 572 37,000  Level FlightAware ADS-B
Mon 07:37:25 AM 41.8080 19.2690 136° Southeast 498 573 37,000  Level FlightAware ADS-B
Mon 07:38:01 AM 41.7450 19.3470 137° Southeast 497 572 37,000  Level FlightAware ADS-B
Mon 07:38:37 AM 41.6860 19.4190 138° Southeast 500 575 37,000  Level FlightAware ADS-B
Mon 07:39:04 AM 41.6450 19.4740 135° Southeast 500 575 37,000  Level FlightAware ADS-B
Mon 07:39:45 AM 41.5730 19.5710 135° Southeast 501 577 37,000  Level FlightAware ADS-B
Mon 07:39:57 AM 41.5530 19.5990 134° Southeast 500 575 37,000  Level FlightAware ADS-B
Mon 07:41:26 AM 41.4270 19.7630 136° Southeast 500 575 37,000  Level FlightAware ADS-B
Mon 07:42:02 AM 41.3480 19.8630 136° Southeast 499 574 37,000  Level FlightAware ADS-B
Mon 07:42:34 AM 41.2940 19.9310 137° Southeast 497 572 37,000  Level FlightAware ADS-B
Mon 07:42:52 AM 41.2620 19.9730 135° Southeast 497 572 37,000  Level FlightAware ADS-B
Mon 07:43:51 AM 41.1760 20.0830 136° Southeast 495 570 37,000  Level FlightAware ADS-B
Mon 07:44:27 AM 41.1100 20.1670 136° Southeast 494 568 37,000  Level FlightAware ADS-B
Mon 07:45:03 AM 41.0500 20.2420 137° Southeast 493 567 37,000  Level FlightAware ADS-B
Mon 07:45:39 AM 40.9900 20.3170 137° Southeast 494 568 37,000  Level FlightAware ADS-B
Mon 07:46:07 AM 40.9460 20.3740 136° Southeast 493 567 37,000  Level FlightAware ADS-B
Mon 07:46:48 AM 40.8730 20.4650 137° Southeast 494 568 37,000  Level FlightAware ADS-B
Mon 07:47:32 AM 40.8000 20.5590 136° Southeast 494 568 37,000  Level FlightAware ADS-B
Mon 07:48:12 AM 40.7380 20.6380 136° Southeast 494 568 37,000  Level FlightAware ADS-B
Mon 07:48:46 AM 40.6780 20.7100 138° Southeast 493 567 37,000  Level FlightAware ADS-B
Mon 07:49:23 AM 40.6180 20.7850 136° Southeast 493 567 37,000  Level FlightAware ADS-B
Mon 07:49:53 AM 40.5670 20.8480 137° Southeast 492 566 37,000  Level FlightAware ADS-B
Mon 07:50:31 AM 40.5030 20.9280 136° Southeast 491 565 37,000  Level FlightAware ADS-B
Mon 07:51:07 AM 40.4430 20.9990 138° Southeast 489 563 37,000  Level FlightAware ADS-B
Mon 07:51:43 AM 40.3820 21.0690 139° Southeast 487 560 37,000  Level FlightAware ADS-B
Mon 07:52:17 AM 40.3260 21.1370 137° Southeast 490 564 37,000  Level FlightAware ADS-B
Mon 07:52:50 AM 40.2770 21.2110 131° Southeast 489 563 37,000  Level FlightAware ADS-B
Mon 07:53:27 AM 40.2230 21.2910 131° Southeast 486 559 37,000  Level FlightAware ADS-B
Mon 07:54:01 AM 40.1700 21.3690 132° Southeast 485 558 37,000  Level FlightAware ADS-B
Mon 07:54:33 AM 40.1210 21.4380 133° Southeast 484 557 37,000  Level FlightAware ADS-B
Mon 07:55:13 AM 40.0600 21.5220 133° Southeast 485 558 37,000  Level FlightAware ADS-B
Mon 07:55:47 AM 40.0070 21.5970 133° Southeast 486 559 37,000  Level FlightAware ADS-B
Mon 07:56:21 AM 39.9600 21.6640 132° Southeast 486 559 37,000  Level FlightAware ADS-B
Mon 07:56:53 AM 39.9080 21.7400 132° Southeast 485 558 37,000  Level FlightAware ADS-B
Mon 07:57:33 AM 39.8480 21.8270 132° Southeast 483 556 37,000  Level FlightAware ADS-B
Mon 07:58:09 AM 39.7950 21.9030 132° Southeast 482 555 37,000  Level FlightAware ADS-B
Mon 07:58:41 AM 39.7470 21.9730 132° Southeast 480 552 37,000  Level FlightAware ADS-B
Mon 07:59:16 AM 39.6950 22.0460 133° Southeast 480 552 37,000  Level FlightAware ADS-B
Mon 07:59:48 AM 39.6470 22.1140 133° Southeast 480 552 37,000  Level FlightAware ADS-B
Mon 07:59:54 AM 39.6380 22.1270 132° Southeast 479 551 37,000  Level FlightAware ADS-B
Mon 08:01:53 AM 39.4810 22.3500 132° Southeast 481 554 37,000  Level FlightAware ADS-B
Mon 08:02:47 AM 39.3980 22.4690 132° Southeast 480 552 37,000  Level FlightAware ADS-B
Mon 08:03:26 AM 39.3380 22.5540 132° Southeast 480 552 37,000  Level FlightAware ADS-B
Mon 08:04:00 AM 39.2820 22.6320 133° Southeast 479 551 37,000  Level FlightAware ADS-B
Mon 08:04:36 AM 39.2170 22.7230 133° Southeast 480 552 37,000  Level FlightAware ADS-B
Mon 08:05:00 AM 39.1810 22.7730 133° Southeast 480 552 37,000  Level FlightAware ADS-B
Mon 08:06:12 AM 39.0730 22.9250 132° Southeast 481 554 37,000  Level FlightAware ADS-B
Mon 08:06:44 AM 39.0220 22.9940 134° Southeast 481 554 37,000  Level FlightAware ADS-B
Mon 08:07:26 AM 38.9580 23.0830 133° Southeast 484 557 37,000  Level FlightAware ADS-B
Mon 08:07:58 AM 38.9100 23.1500 133° Southeast 485 558 37,000  Level FlightAware ADS-B
Mon 08:08:35 AM 38.8520 23.2300 133° Southeast 485 558 37,000  Level FlightAware ADS-B
Mon 08:09:11 AM 38.7970 23.3060 133° Southeast 486 559 37,000  Level FlightAware ADS-B
Mon 08:09:43 AM 38.7480 23.3740 133° Southeast 486 559 37,000  Level FlightAware ADS-B
Mon 08:10:15 AM 38.6990 23.4410 133° Southeast 486 559 37,000  Level FlightAware ADS-B
Mon 08:10:55 AM 38.6410 23.5190 134° Southeast 486 559 37,000  Level FlightAware ADS-B
Mon 08:11:29 AM 38.5850 23.5960 133° Southeast 486 559 37,000  Level FlightAware ADS-B
Mon 08:12:03 AM 38.5380 23.6590 134° Southeast 486 559 37,000  Level FlightAware ADS-B
Mon 08:12:44 AM 38.4710 23.7520 133° Southeast 488 562 37,000  Level FlightAware ADS-B
Mon 08:13:22 AM 38.4110 23.8330 133° Southeast 488 562 37,000  Level FlightAware ADS-B
Mon 08:13:58 AM 38.3540 23.9090 134° Southeast 490 564 37,000  Level FlightAware ADS-B
Mon 08:14:29 AM 38.3060 23.9740 133° Southeast 490 564 37,000  Level FlightAware ADS-B
Mon 08:15:05 AM 38.2510 24.0470 134° Southeast 490 564 37,000  Level FlightAware ADS-B
Mon 08:15:41 AM 38.1950 24.1230 133° Southeast 491 565 37,000  Level FlightAware ADS-B
Mon 08:16:14 AM 38.1420 24.1940 133° Southeast 493 567 37,000  Level FlightAware ADS-B
Mon 08:16:50 AM 38.0860 24.2670 134° Southeast 493 567 37,000  Level FlightAware ADS-B
Mon 08:17:26 AM 38.0290 24.3430 134° Southeast 493 567 37,000  Level FlightAware ADS-B
Mon 08:18:02 AM 37.9710 24.4200 134° Southeast 494 568 37,000  Level FlightAware ADS-B
Mon 08:18:35 AM 37.9210 24.4870 133° Southeast 493 567 37,000  Level FlightAware ADS-B
Mon 08:19:11 AM 37.8630 24.5640 134° Southeast 492 566 37,000  Level FlightAware ADS-B
Mon 08:19:47 AM 37.8070 24.6370 134° Southeast 494 568 37,000  Level FlightAware ADS-B
Mon 08:21:37 AM 37.6700 24.8350 131° Southeast 504 580 37,000  Level FlightAware ADS-B
Mon 08:21:51 AM 37.6440 24.8810 126° Southeast 505 581 37,000  Level FlightAware ADS-B
Mon 08:22:41 AM 37.5600 25.0360 124° Southeast 502 578 37,000  Level FlightAware ADS-B
Mon 08:23:19 AM 37.5070 25.1290 126° Southeast 501 577 37,000  Level FlightAware ADS-B
Mon 08:23:47 AM 37.4710 25.1920 126° Southeast 501 577 37,000  Level FlightAware ADS-B
Mon 08:24:49 AM 37.3850 25.3380 127° Southeast 501 577 37,000  Level FlightAware ADS-B
Mon 08:25:21 AM 37.3410 25.4130 126° Southeast 501 577 37,000  Level FlightAware ADS-B
Mon 08:26:05 AM 37.2840 25.5150 125° Southeast 502 578 37,000  Level FlightAware ADS-B
Mon 08:26:38 AM 37.2410 25.5910 125° Southeast 502 578 37,000  Level FlightAware ADS-B
Mon 08:27:13 AM 37.1900 25.6820 125° Southeast 503 579 37,000  Level FlightAware ADS-B
Mon 08:27:49 AM 37.1420 25.7670 125° Southeast 504 580 37,000  Level FlightAware ADS-B
Mon 08:28:27 AM 37.0910 25.8560 126° Southeast 505 581 37,000  Level FlightAware ADS-B
Mon 08:29:03 AM 37.0410 25.9440 125° Southeast 505 581 37,000  Level FlightAware ADS-B
Mon 08:29:41 AM 36.9890 26.0340 126° Southeast 507 583 37,000  Level FlightAware ADS-B
Mon 08:30:17 AM 36.9400 26.1200 125° Southeast 507 583 37,000  Level FlightAware ADS-B
Mon 08:30:53 AM 36.8910 26.2060 125° Southeast 508 585 37,000  Level FlightAware ADS-B
Mon 08:31:27 AM 36.8440 26.2870 126° Southeast 508 585 37,000  Level FlightAware ADS-B
Mon 08:32:03 AM 36.7960 26.3700 126° Southeast 509 586 37,000  Level FlightAware ADS-B
Mon 08:32:39 AM 36.7460 26.4560 126° Southeast 510 587 37,000  Level FlightAware ADS-B
Mon 08:33:11 AM 36.7020 26.5320 126° Southeast 510 587 37,000  Level FlightAware ADS-B
Mon 08:33:46 AM 36.6540 26.6150 126° Southeast 510 587 37,000  Level FlightAware ADS-B
Mon 08:34:23 AM 36.6010 26.7060 126° Southeast 510 587 37,000  Level FlightAware ADS-B
Mon 08:34:59 AM 36.5510 26.7920 126° Southeast 511 588 37,000  Level FlightAware ADS-B
Mon 08:35:31 AM 36.5070 26.8680 126° Southeast 511 588 37,000  Level FlightAware ADS-B
Mon 08:36:07 AM 36.4570 26.9500 127° Southeast 509 586 37,000  Level FlightAware ADS-B
Mon 08:36:52 AM 36.4000 27.0500 125° Southeast 508 585 37,000  Level FlightAware ADS-B
Mon 08:37:28 AM 36.3570 27.1220 127° Southeast 508 585 37,000  Level FlightAware ADS-B
Mon 08:38:05 AM 36.3140 27.1970 125° Southeast 508 585 37,000  Level FlightAware ADS-B
Mon 08:38:41 AM 36.2480 27.3080 126° Southeast 513 590 37,000  Level FlightAware ADS-B
Mon 08:39:15 AM 36.2070 27.3760 127° Southeast 513 590 37,000  Level FlightAware ADS-B
Mon 08:39:51 AM 36.1650 27.4490 125° Southeast 513 590 37,000  Level FlightAware ADS-B
Mon 08:41:10 AM 36.0710 27.6090 126° Southeast 513 590 37,000  Level FlightAware ADS-B
Mon 08:41:55 AM 36.0180 27.7000 126° Southeast 513 590 37,000  Level FlightAware ADS-B
Mon 08:42:31 AM 35.9750 27.7720 126° Southeast 513 590 37,000  Level FlightAware ADS-B
Mon 08:43:08 AM 35.9310 27.8470 126° Southeast 513 590 37,000  Level FlightAware ADS-B
Mon 08:43:47 AM 35.8850 27.9250 126° Southeast 513 590 37,000  Level FlightAware ADS-B
Mon 08:44:19 AM 35.7680 28.1030 129° Southeast 508 585 37,000  Level FlightAware ADS-B
Mon 08:45:01 AM 35.7080 28.2030 126° Southeast 509 586 37,000  Level FlightAware ADS-B
Mon 08:45:33 AM 35.6620 28.2770 127° Southeast 510 587 37,000  Level FlightAware ADS-B
Mon 08:46:18 AM 35.6060 28.3710 126° Southeast 510 587 37,000  Level FlightAware ADS-B
Mon 08:46:51 AM 35.5550 28.4520 128° Southeast 512 589 37,000  Level FlightAware ADS-B
Mon 08:47:40 AM 35.4910 28.5560 127° Southeast 513 590 37,000  Level FlightAware ADS-B
Mon 08:48:14 AM 35.4500 28.6230 127° Southeast 513 590 37,000  Level FlightAware ADS-B
Mon 08:48:50 AM 35.4060 28.6940 127° Southeast 513 590 37,000  Level FlightAware ADS-B
Mon 08:49:26 AM 35.3630 28.7650 127° Southeast 513 590 37,000  Level FlightAware ADS-B
Mon 08:49:59 AM 35.2850 28.8900 127° Southeast 513 590 37,000  Level FlightAware ADS-B
Mon 08:50:34 AM 35.2380 28.9640 128° Southeast 513 590 37,000  Level FlightAware ADS-B
Mon 08:51:26 AM 35.1680 29.0800 126° Southeast 509 586 37,000  Level FlightAware ADS-B
Mon 08:52:02 AM 35.1250 29.1510 127° Southeast 509 586 37,000  Level FlightAware ADS-B
Mon 08:52:38 AM 35.0830 29.2230 125° Southeast 509 586 37,000  Level FlightAware ADS-B
Mon 08:53:15 AM 35.0390 29.2960 126° Southeast 509 586 37,000  Level FlightAware ADS-B
Mon 08:53:51 AM 34.9970 29.3670 126° Southeast 509 586 37,000  Level FlightAware ADS-B
Mon 08:54:26 AM 34.9020 29.5000 131° Southeast 37,000  Level FlightAware ADS-B
Mon 08:55:02 AM 34.8480 29.5850 128° Southeast 509 586 37,000  Level FlightAware ADS-B
Mon 08:55:41 AM 34.7900 29.6770 127° Southeast 510 587 37,000  Level FlightAware ADS-B
Mon 08:56:21 AM 34.7300 29.7710 128° Southeast 510 587 37,000  Level FlightAware ADS-B
Mon 08:56:59 AM 34.6860 29.8500 124° Southeast 515 593 37,000  Level FlightAware ADS-B
Mon 08:57:27 AM 34.6520 29.9210 120° Southeast 518 596 37,000  Level FlightAware ADS-B
Mon 08:58:15 AM 34.6030 30.0240 120° Southeast 518 596 37,000  Level FlightAware ADS-B
Mon 08:58:52 AM 34.5450 30.1440 120° Southeast 517 595 37,000  Level FlightAware ADS-B
Mon 08:59:33 AM 34.4960 30.2470 120° Southeast 517 595 37,000  Level FlightAware ADS-B
Mon 09:00:26 AM 34.4390 30.3650 120° Southeast 512 589 37,000  Level FlightAware ADS-B
Mon 09:01:01 AM 34.3900 30.4610 122° Southeast 511 588 37,000  Level FlightAware ADS-B
Mon 09:01:39 AM 34.3430 30.5570 121° Southeast 511 588 37,000  Level FlightAware ADS-B
Mon 09:02:09 AM 34.3060 30.6340 120° Southeast 511 588 37,000  Level FlightAware ADS-B
Mon 09:02:45 AM 34.2620 30.7230 121° Southeast 510 587 37,000  Level FlightAware ADS-B
Mon 09:03:50 AM 34.1830 30.8830 121° Southeast 513 590 37,000  Level FlightAware ADS-B
Mon 09:04:20 AM 34.1450 30.9570 122° Southeast 512 589 37,000  Level FlightAware ADS-B
Mon 09:05:06 AM 34.0900 31.0690 121° Southeast 511 588 37,000  Level FlightAware ADS-B
Mon 09:05:41 AM 34.0470 31.1550 121° Southeast 506 582 37,000  Level FlightAware ADS-B
Mon 09:06:16 AM 34.0050 31.2400 121° Southeast 506 582 37,000  Level FlightAware ADS-B
Mon 09:06:51 AM 33.9620 31.3250 121° Southeast 506 582 37,000  Level FlightAware ADS-B
Mon 09:07:25 AM 33.9200 31.4100 121° Southeast 506 582 37,000  Level FlightAware ADS-B
Mon 09:07:56 AM 33.8820 31.4830 122° Southeast 506 582 37,000  Level FlightAware ADS-B
Mon 09:08:31 AM 33.8400 31.5680 121° Southeast 506 582 37,000  Level FlightAware ADS-B
Mon 09:09:07 AM 33.7960 31.6560 121° Southeast 506 582 37,000  Level FlightAware ADS-B
Mon 09:09:46 AM 33.7470 31.7530 121° Southeast 507 583 37,000  Level FlightAware ADS-B
Mon 09:10:17 AM 33.7100 31.8250 122° Southeast 506 582 37,000  Level FlightAware ADS-B
Mon 09:10:52 AM 33.6660 31.9120 121° Southeast 505 581 37,000  Level FlightAware ADS-B
Mon 09:11:27 AM 33.6230 31.9970 121° Southeast 509 586 37,000  Level FlightAware ADS-B
Mon 09:12:04 AM 33.5880 32.0640 122° Southeast 509 586 37,000  Level FlightAware ADS-B
Mon 09:12:38 AM 33.5400 32.1580 121° Southeast 504 580 37,000  Level FlightAware ADS-B
Mon 09:13:08 AM 33.5000 32.2370 121° Southeast 504 580 37,000  Level FlightAware ADS-B
Mon 09:13:44 AM 33.4550 32.3230 122° Southeast 505 581 37,000  Level FlightAware ADS-B
Mon 09:14:22 AM 33.4130 32.4050 122° Southeast 505 581 37,000  Level FlightAware ADS-B
Mon 09:14:49 AM 33.3750 32.4790 122° Southeast 505 581 37,000  Level FlightAware ADS-B
Mon 09:15:24 AM 33.3310 32.5630 122° Southeast 505 581 37,000  Level FlightAware ADS-B
Mon 09:15:59 AM 33.2900 32.6420 122° Southeast 510 587 37,000  Level FlightAware ADS-B
Mon 09:16:35 AM 33.2440 32.7310 122° Southeast 509 586 37,000  Level FlightAware ADS-B
Mon 09:17:13 AM 33.2000 32.8160 122° Southeast 508 585 37,000 -486 Level FlightAware ADS-B
Mon 09:17:49 AM 33.1480 32.9140 122° Southeast 507 583 36,400 -1,091 Descending FlightAware ADS-B
Mon 09:18:19 AM 33.1120 32.9830 122° Southeast 508 585 35,800 -1,048 Descending FlightAware ADS-B
Mon 09:18:52 AM 33.0730 33.0560 123° Southeast 506 582 35,300 -986 Descending FlightAware ADS-B
Mon 09:19:32 AM 33.0250 33.1480 122° Southeast 502 578 34,600 -2,230 Descending FlightAware ADS-B
Mon 09:21:55 AM 32.8640 33.4520 129° Southeast 493 567 28,500 -1,877 Descending FlightAware ADS-B
Mon 09:22:00 AM 32.8222 33.4996 129° Southeast  Level Estimated
Mon 09:22:47 AM 32.8110 33.5530 122° Southeast 493 567 28,500  Level FlightAware ADS-B
Mon 09:23:24 AM 32.7730 33.6260 122° Southeast 493 567 28,500 -5,130 Level FlightAware ADS-B
Mon 09:23:56 AM 32.7080 33.7460 123° Southeast 454 522 22,600 -10,333 Descending FlightAware ADS-B
Mon 09:24:00 AM 32.7010 33.7590 123° Southeast 454 522 22,300 -2,548 Descending FlightAware ADS-B
Mon 09:25:09 AM 32.6220 33.9040 123° Southeast 450 518 19,500 -3,089 Descending FlightAware ADS-B
Mon 09:25:41 AM 32.5860 33.9700 123° Southeast 445 512 17,100 -4,250 Descending FlightAware ADS-B
Mon 09:26:21 AM 32.5430 34.0510 122° Southeast 431 496 14,400 -3,672 Descending FlightAware ADS-B
Mon 09:26:48 AM 32.5160 34.1070 120° Southeast 419 482 13,000 -2,700 Descending FlightAware ADS-B
Mon 09:27:21 AM 32.4800 34.1650 126° Southeast 397 457 11,700 -2,630 Descending FlightAware ADS-B
Mon 09:28:01 AM 32.4280 34.2260 135° Southeast 394 453 9,800 -2,679 Descending FlightAware ADS-B
Mon 09:28:17 AM 32.4070 34.2520 134° Southeast 391 450 9,200 -1,765 Descending FlightAware ADS-B
Mon 09:28:35 AM 32.3840 34.2790 135° Southeast 378 435 8,800 -1,143 Descending FlightAware ADS-B
Mon 09:28:59 AM 32.3560 34.3140 133° Southeast 361 415 8,400 -1,333 Descending FlightAware ADS-B
Mon 09:29:20 AM 32.3320 34.3420 135° Southeast 355 409 7,800 -1,500 Descending FlightAware ADS-B
Mon 09:29:39 AM 32.3100 34.3670 136° Southeast 347 399 7,400 -1,500 Descending FlightAware ADS-B
Mon 09:29:44 AM 32.3030 34.3750 136° Southeast 344 396 7,200 -1,116 Descending FlightAware ADS-B
Mon 09:30:22 AM 32.2680 34.4170 135° Southeast 330 380 6,600 -952 Descending FlightAware ADS-B
Mon 09:30:47 AM 32.2410 34.4500 134° Southeast 317 365 6,200 -960 Descending FlightAware ADS-B
Mon 09:31:12 AM 32.2160 34.4800 135° Southeast 306 352 5,800 -480 Descending FlightAware ADS-B
Mon 09:31:37 AM 32.1950 34.5060 134° Southeast 306 352 5,800 -517 Level FlightAware ADS-B
Mon 09:32:10 AM 32.1930 34.5080 140° Southeast 300 345 5,300 -462 Descending FlightAware ADS-B
Mon 09:32:55 AM 32.1190 34.5980 134° Southeast 469 540 5,200 -118 Descending FlightAware ADS-B
Mon 09:33:01 AM 32.1150 34.6040 128° Southeast 436 502 5,200  Level FlightAware ADS-B
Mon 09:33:25 AM 32.0980 34.6310 127° Southeast 284 327 5,200 -508 Level FlightAware ADS-B
Mon 09:34:00 AM 32.0700 34.6800 124° Southeast 275 316 4,700 -500 Descending FlightAware ADS-B
Mon 09:34:25 AM 32.0530 34.7090 125° Southeast 254 292 4,700 -571 Level FlightAware ADS-B
Mon 09:34:42 AM 32.0420 34.7290 123° Southeast 256 295 4,300 -732 Descending FlightAware ADS-B
Mon 09:35:06 AM 32.0260 34.7550 126° Southeast 242 278 4,200 -125 Descending FlightAware ADS-B
Mon 09:35:30 AM 32.0060 34.7790 134° Southeast 239 275 4,200  Level FlightAware ADS-B
Mon 09:35:52 AM 31.9890 34.8000 134° Southeast 240 276 4,200  Level FlightAware ADS-B
Mon 09:36:09 AM 31.9760 34.8180 130° Southeast 236 272 4,200 207 Level FlightAware ADS-B
Mon 09:36:21 AM 31.9720 34.8290 113° Southeast 228 262 4,300  Climbing FlightAware ADS-B
Mon 09:36:45 AM 31.9650 34.8590 105° East 233 268 4,200 -200 Descending FlightAware ADS-B
Mon 09:36:51 AM 31.9640 34.8680 97° East 223 257 4,200 -500 Level FlightAware ADS-B
Mon 09:36:57 AM 31.9640 34.8750 90° East 218 251 4,100 -1,071 Descending FlightAware ADS-B
Mon 09:37:19 AM 31.9680 34.8440 279° West 200 230 3,700 -1,300 Descending FlightAware ADS-B
Mon 09:37:57 AM 31.9810 34.9340 80° East 178 205 2,800 -1,238 Descending FlightAware ADS-B
Mon 09:38:22 AM 31.9860 34.9520 72° East 164 189 2,400 -1,235 Descending FlightAware ADS-B
Mon 09:38:31 AM 31.9930 34.9610 47° Northeast 166 191 2,100 -1,714 Descending FlightAware ADS-B
Mon 09:38:36 AM 31.9970 34.9630 23° Northeast 164 189 2,000 -800 Descending FlightAware ADS-B
Mon 09:38:46 AM 32.0030 34.9640 North 160 184 1,900 -800 Descending FlightAware ADS-B
Mon 09:39:06 AM 32.0180 34.9600 347° North 153 176 1,600 -960 Descending FlightAware ADS-B
Mon 09:39:11 AM 32.0210 34.9580 331° Northwest 154 177 1,500 -818 Descending FlightAware ADS-B
Mon 09:39:28 AM 32.0260 34.9480 301° West 156 180 1,300 -267 Descending FlightAware ADS-B
Mon 09:39:56 AM 32.0400 34.9350 322° Northwest 156 180 1,300  Level FlightAware ADS-B

Login

Don't have an account? Register now (free) for customized features, flight alerts, and more!